<?xml version="1.0" encoding="UTF-8" standalone="no" ?>
<gpx xmlns="http://www.topografix.com/GPX/1/1" xmlns:xsi="http://www.w3.org/2001/XMLSchema-instance" xsi:schemaLocation="http://www.topografix.com/GPX/1/1 http://www.topografix.com/GPX/1/1/gpx.xsd" version="1.1" creator="VisuGPX - https://www.visugpx.com">
  <metadata>
    <name>Pointe des Marcelettes</name>
    <desc><![CDATA[
]]></desc>
  </metadata>
  <trk>
    <name><![CDATA[Move]]></name>
    <trkseg>
      <trkpt lat="44.70112" lon="6.85906">
        <ele>1890.1999511719</ele>
        <time>2020-02-21T07:56:55.010Z</time>
      </trkpt>
      <trkpt lat="44.70112" lon="6.85906">
        <ele>1877.9</ele>
        <time>2020-02-21T07:56:56.010Z</time>
      </trkpt>
      <trkpt lat="44.70101" lon="6.85911">
        <ele>1853</ele>
        <time>2020-02-21T07:57:12.010Z</time>
      </trkpt>
      <trkpt lat="44.7009" lon="6.85915">
        <ele>1851.36</ele>
        <time>2020-02-21T07:57:21.010Z</time>
      </trkpt>
      <trkpt lat="44.70079" lon="6.85917">
        <ele>1850.3998062032</ele>
        <time>2020-02-21T07:57:29.010Z</time>
      </trkpt>
      <trkpt lat="44.70068" lon="6.85913">
        <ele>1850</ele>
        <time>2020-02-21T07:57:38.010Z</time>
      </trkpt>
      <trkpt lat="44.70056" lon="6.85912">
        <ele>1849.38</ele>
        <time>2020-02-21T07:57:49.010Z</time>
      </trkpt>
      <trkpt lat="44.70056" lon="6.85906">
        <ele>1848.42</ele>
        <time>2020-02-21T07:58:07.010Z</time>
      </trkpt>
      <trkpt lat="44.70059" lon="6.85904">
        <ele>1849</ele>
        <time>2020-02-21T07:58:40.010Z</time>
      </trkpt>
      <trkpt lat="44.70057" lon="6.85911">
        <ele>1846.9809806667</ele>
        <time>2020-02-21T07:59:33.010Z</time>
      </trkpt>
      <trkpt lat="44.70048" lon="6.8592">
        <ele>1846.2802801905</ele>
        <time>2020-02-21T07:59:40.010Z</time>
      </trkpt>
      <trkpt lat="44.7004" lon="6.85929">
        <ele>1845.58</ele>
        <time>2020-02-21T07:59:47.010Z</time>
      </trkpt>
      <trkpt lat="44.70031" lon="6.85935">
        <ele>1845.08</ele>
        <time>2020-02-21T07:59:52.010Z</time>
      </trkpt>
      <trkpt lat="44.70021" lon="6.85941">
        <ele>1841.32</ele>
        <time>2020-02-21T08:00:02.010Z</time>
      </trkpt>
      <trkpt lat="44.70012" lon="6.85943">
        <ele>1841.4069767442</ele>
        <time>2020-02-21T08:00:07.010Z</time>
      </trkpt>
      <trkpt lat="44.70001" lon="6.85943">
        <ele>1841.699999868</ele>
        <time>2020-02-21T08:00:16.040Z</time>
      </trkpt>
      <trkpt lat="44.69992" lon="6.85944">
        <ele>1841.0845366865</ele>
        <time>2020-02-21T08:00:22.010Z</time>
      </trkpt>
      <trkpt lat="44.69982" lon="6.85944">
        <ele>1840.4809622323</ele>
        <time>2020-02-21T08:00:28.010Z</time>
      </trkpt>
      <trkpt lat="44.69973" lon="6.85943">
        <ele>1839.9613153044</ele>
        <time>2020-02-21T08:00:33.010Z</time>
      </trkpt>
      <trkpt lat="44.69964" lon="6.85939">
        <ele>1838.8007744367</ele>
        <time>2020-02-21T08:00:39.010Z</time>
      </trkpt>
      <trkpt lat="44.69955" lon="6.85939">
        <ele>1837.4078684276</ele>
        <time>2020-02-21T08:00:46.010Z</time>
      </trkpt>
      <trkpt lat="44.69945" lon="6.85937">
        <ele>1835.36</ele>
        <time>2020-02-21T08:00:56.010Z</time>
      </trkpt>
      <trkpt lat="44.69935" lon="6.85941">
        <ele>1834.36</ele>
        <time>2020-02-21T08:01:01.010Z</time>
      </trkpt>
      <trkpt lat="44.69926" lon="6.85939">
        <ele>1833.4805193145</ele>
        <time>2020-02-21T08:01:08.010Z</time>
      </trkpt>
      <trkpt lat="44.69915" lon="6.85938">
        <ele>1832.8808805987</ele>
        <time>2020-02-21T08:01:14.010Z</time>
      </trkpt>
      <trkpt lat="44.69907" lon="6.85934">
        <ele>1832.0800800544</ele>
        <time>2020-02-21T08:01:22.010Z</time>
      </trkpt>
      <trkpt lat="44.69897" lon="6.85932">
        <ele>1831.5808385911</ele>
        <time>2020-02-21T08:01:27.010Z</time>
      </trkpt>
      <trkpt lat="44.69888" lon="6.85929">
        <ele>1831.0818369138</ele>
        <time>2020-02-21T08:01:32.010Z</time>
      </trkpt>
      <trkpt lat="44.69883" lon="6.85918">
        <ele>1830.3807617672</ele>
        <time>2020-02-21T08:01:39.010Z</time>
      </trkpt>
      <trkpt lat="44.69875" lon="6.8591">
        <ele>1829.68</ele>
        <time>2020-02-21T08:01:46.010Z</time>
      </trkpt>
      <trkpt lat="44.69866" lon="6.85905">
        <ele>1828.76</ele>
        <time>2020-02-21T08:01:54.010Z</time>
      </trkpt>
      <trkpt lat="44.69857" lon="6.85902">
        <ele>1827.16</ele>
        <time>2020-02-21T08:02:02.010Z</time>
      </trkpt>
      <trkpt lat="44.69847" lon="6.859">
        <ele>1826.28</ele>
        <time>2020-02-21T08:02:10.010Z</time>
      </trkpt>
      <trkpt lat="44.69838" lon="6.85899">
        <ele>1825.7880540806</ele>
        <time>2020-02-21T08:02:15.010Z</time>
      </trkpt>
      <trkpt lat="44.69827" lon="6.85896">
        <ele>1824.9116426855</ele>
        <time>2020-02-21T08:02:24.040Z</time>
      </trkpt>
      <trkpt lat="44.69816" lon="6.85899">
        <ele>1824.2910604847</ele>
        <time>2020-02-21T08:02:30.010Z</time>
      </trkpt>
      <trkpt lat="44.69802" lon="6.859">
        <ele>1823.07699968</ele>
        <time>2020-02-21T08:02:42.040Z</time>
      </trkpt>
      <trkpt lat="44.69792" lon="6.85901">
        <ele>1822.3812379202</ele>
        <time>2020-02-21T08:02:49.010Z</time>
      </trkpt>
      <trkpt lat="44.6978" lon="6.85901">
        <ele>1822</ele>
        <time>2020-02-21T08:02:55.010Z</time>
      </trkpt>
      <trkpt lat="44.69771" lon="6.85897">
        <ele>1822</ele>
        <time>2020-02-21T08:03:01.010Z</time>
      </trkpt>
      <trkpt lat="44.69764" lon="6.85889">
        <ele>1822</ele>
        <time>2020-02-21T08:03:11.010Z</time>
      </trkpt>
      <trkpt lat="44.69766" lon="6.85876">
        <ele>1822</ele>
        <time>2020-02-21T08:03:24.010Z</time>
      </trkpt>
      <trkpt lat="44.6976" lon="6.85862">
        <ele>1822</ele>
        <time>2020-02-21T08:03:32.010Z</time>
      </trkpt>
      <trkpt lat="44.69753" lon="6.85854">
        <ele>1821.18</ele>
        <time>2020-02-21T08:03:41.010Z</time>
      </trkpt>
      <trkpt lat="44.69747" lon="6.85844">
        <ele>1822.7812203001</ele>
        <time>2020-02-21T08:03:52.010Z</time>
      </trkpt>
      <trkpt lat="44.69751" lon="6.85833">
        <ele>1823.04</ele>
        <time>2020-02-21T08:04:03.010Z</time>
      </trkpt>
      <trkpt lat="44.69756" lon="6.85822">
        <ele>1825.5184445006</ele>
        <time>2020-02-21T08:04:18.010Z</time>
      </trkpt>
      <trkpt lat="44.6976" lon="6.85809">
        <ele>1827.4383147645</ele>
        <time>2020-02-21T08:04:30.010Z</time>
      </trkpt>
      <trkpt lat="44.69758" lon="6.85797">
        <ele>1830.4182545776</ele>
        <time>2020-02-21T08:04:47.010Z</time>
      </trkpt>
      <trkpt lat="44.69752" lon="6.85786">
        <ele>1831.42</ele>
        <time>2020-02-21T08:04:57.010Z</time>
      </trkpt>
      <trkpt lat="44.69748" lon="6.85774">
        <ele>1835.0379234888</ele>
        <time>2020-02-21T08:05:18.010Z</time>
      </trkpt>
      <trkpt lat="44.69752" lon="6.85762">
        <ele>1837.0341016759</ele>
        <time>2020-02-21T08:05:33.010Z</time>
      </trkpt>
      <trkpt lat="44.69745" lon="6.85753">
        <ele>1838.6449353324</ele>
        <time>2020-02-21T08:05:41.040Z</time>
      </trkpt>
      <trkpt lat="44.69747" lon="6.8574">
        <ele>1840.82300032</ele>
        <time>2020-02-21T08:06:01.040Z</time>
      </trkpt>
      <trkpt lat="44.69739" lon="6.85728">
        <ele>1841.24</ele>
        <time>2020-02-21T08:06:04.010Z</time>
      </trkpt>
      <trkpt lat="44.69733" lon="6.85717">
        <ele>1844.24</ele>
        <time>2020-02-21T08:06:19.010Z</time>
      </trkpt>
      <trkpt lat="44.69725" lon="6.85709">
        <ele>1845</ele>
        <time>2020-02-21T08:06:29.010Z</time>
      </trkpt>
      <trkpt lat="44.69716" lon="6.85701">
        <ele>1846.0937169207</ele>
        <time>2020-02-21T08:06:44.010Z</time>
      </trkpt>
      <trkpt lat="44.69714" lon="6.85688">
        <ele>1848.3939984957</ele>
        <time>2020-02-21T08:07:00.010Z</time>
      </trkpt>
      <trkpt lat="44.69723" lon="6.85672">
        <ele>1851.64</ele>
        <time>2020-02-21T08:07:21.010Z</time>
      </trkpt>
      <trkpt lat="44.69716" lon="6.85663">
        <ele>1853.44</ele>
        <time>2020-02-21T08:07:30.010Z</time>
      </trkpt>
      <trkpt lat="44.69707" lon="6.85648">
        <ele>1856.44</ele>
        <time>2020-02-21T08:07:45.010Z</time>
      </trkpt>
      <trkpt lat="44.69714" lon="6.85641">
        <ele>1858.24</ele>
        <time>2020-02-21T08:07:54.010Z</time>
      </trkpt>
      <trkpt lat="44.69707" lon="6.85632">
        <ele>1861.22</ele>
        <time>2020-02-21T08:08:15.010Z</time>
      </trkpt>
      <trkpt lat="44.69698" lon="6.85623">
        <ele>1863.44</ele>
        <time>2020-02-21T08:08:30.010Z</time>
      </trkpt>
      <trkpt lat="44.69689" lon="6.85616">
        <ele>1866.2293751175</ele>
        <time>2020-02-21T08:08:44.010Z</time>
      </trkpt>
      <trkpt lat="44.69685" lon="6.85602">
        <ele>1868.72300032</ele>
        <time>2020-02-21T08:09:00.040Z</time>
      </trkpt>
      <trkpt lat="44.69675" lon="6.85588">
        <ele>1873.02</ele>
        <time>2020-02-21T08:09:33.010Z</time>
      </trkpt>
      <trkpt lat="44.69662" lon="6.85576">
        <ele>1874.52</ele>
        <time>2020-02-21T08:09:48.010Z</time>
      </trkpt>
      <trkpt lat="44.69657" lon="6.85565">
        <ele>1877.0386846956</ele>
        <time>2020-02-21T08:10:03.010Z</time>
      </trkpt>
      <trkpt lat="44.69646" lon="6.85559">
        <ele>1879.940994081</ele>
        <time>2020-02-21T08:10:22.240Z</time>
      </trkpt>
      <trkpt lat="44.69633" lon="6.85552">
        <ele>1881.84600064</ele>
        <time>2020-02-21T08:10:37.040Z</time>
      </trkpt>
      <trkpt lat="44.69636" lon="6.8554">
        <ele>1883.02</ele>
        <time>2020-02-21T08:10:43.010Z</time>
      </trkpt>
      <trkpt lat="44.69642" lon="6.8553">
        <ele>1884.02</ele>
        <time>2020-02-21T08:10:53.010Z</time>
      </trkpt>
      <trkpt lat="44.69638" lon="6.85512">
        <ele>1887.3193610735</ele>
        <time>2020-02-21T08:11:16.010Z</time>
      </trkpt>
      <trkpt lat="44.69631" lon="6.85504">
        <ele>1888.0180354424</ele>
        <time>2020-02-21T08:11:23.010Z</time>
      </trkpt>
      <trkpt lat="44.69623" lon="6.85497">
        <ele>1888.8196391629</ele>
        <time>2020-02-21T08:11:31.010Z</time>
      </trkpt>
      <trkpt lat="44.69614" lon="6.85496">
        <ele>1890.24600064</ele>
        <time>2020-02-21T08:11:39.040Z</time>
      </trkpt>
      <trkpt lat="44.69606" lon="6.85504">
        <ele>1890.84</ele>
        <time>2020-02-21T08:11:42.010Z</time>
      </trkpt>
      <trkpt lat="44.696" lon="6.85493">
        <ele>1893.22</ele>
        <time>2020-02-21T08:11:55.010Z</time>
      </trkpt>
      <trkpt lat="44.69609" lon="6.85486">
        <ele>1893.62</ele>
        <time>2020-02-21T08:11:59.010Z</time>
      </trkpt>
      <trkpt lat="44.69618" lon="6.8548">
        <ele>1894.3085821637</ele>
        <time>2020-02-21T08:12:06.010Z</time>
      </trkpt>
      <trkpt lat="44.69613" lon="6.85465">
        <ele>1895.8160799029</ele>
        <time>2020-02-21T08:12:17.240Z</time>
      </trkpt>
      <trkpt lat="44.69616" lon="6.85453">
        <ele>1899.22</ele>
        <time>2020-02-21T08:12:35.010Z</time>
      </trkpt>
      <trkpt lat="44.69625" lon="6.85448">
        <ele>1899.92</ele>
        <time>2020-02-21T08:12:42.010Z</time>
      </trkpt>
      <trkpt lat="44.69614" lon="6.85444">
        <ele>1900.84</ele>
        <time>2020-02-21T08:12:47.010Z</time>
      </trkpt>
      <trkpt lat="44.69606" lon="6.85441">
        <ele>1902.64</ele>
        <time>2020-02-21T08:12:56.010Z</time>
      </trkpt>
      <trkpt lat="44.69596" lon="6.85439">
        <ele>1904.3190427696</ele>
        <time>2020-02-21T08:13:06.010Z</time>
      </trkpt>
      <trkpt lat="44.69588" lon="6.85433">
        <ele>1905.6149361428</ele>
        <time>2020-02-21T08:13:16.010Z</time>
      </trkpt>
      <trkpt lat="44.69571" lon="6.85421">
        <ele>1907.8136644728</ele>
        <time>2020-02-21T08:13:31.010Z</time>
      </trkpt>
      <trkpt lat="44.69562" lon="6.85417">
        <ele>1910.4234839889</ele>
        <time>2020-02-21T08:13:45.010Z</time>
      </trkpt>
      <trkpt lat="44.69551" lon="6.8541">
        <ele>1912.1685737918</ele>
        <time>2020-02-21T08:13:54.010Z</time>
      </trkpt>
      <trkpt lat="44.69541" lon="6.85408">
        <ele>1917.72</ele>
        <time>2020-02-21T08:14:30.010Z</time>
      </trkpt>
      <trkpt lat="44.69529" lon="6.85396">
        <ele>1918.64</ele>
        <time>2020-02-21T08:14:36.010Z</time>
      </trkpt>
      <trkpt lat="44.69519" lon="6.85396">
        <ele>1921.6529581233</ele>
        <time>2020-02-21T08:14:55.010Z</time>
      </trkpt>
      <trkpt lat="44.69506" lon="6.85401">
        <ele>1927.12</ele>
        <time>2020-02-21T08:15:24.010Z</time>
      </trkpt>
      <trkpt lat="44.69513" lon="6.85389">
        <ele>1928.74300032</ele>
        <time>2020-02-21T08:15:40.240Z</time>
      </trkpt>
      <trkpt lat="44.69501" lon="6.85388">
        <ele>1929.64</ele>
        <time>2020-02-21T08:15:46.010Z</time>
      </trkpt>
      <trkpt lat="44.69492" lon="6.85385">
        <ele>1930.64</ele>
        <time>2020-02-21T08:15:51.010Z</time>
      </trkpt>
      <trkpt lat="44.69481" lon="6.85385">
        <ele>1932.44</ele>
        <time>2020-02-21T08:16:05.010Z</time>
      </trkpt>
      <trkpt lat="44.69471" lon="6.85384">
        <ele>1933.64</ele>
        <time>2020-02-21T08:16:11.010Z</time>
      </trkpt>
      <trkpt lat="44.69461" lon="6.8538">
        <ele>1934.84</ele>
        <time>2020-02-21T08:16:17.010Z</time>
      </trkpt>
      <trkpt lat="44.69465" lon="6.85366">
        <ele>1938.3850920978</ele>
        <time>2020-02-21T08:16:35.010Z</time>
      </trkpt>
      <trkpt lat="44.69475" lon="6.85365">
        <ele>1939.4265013178</ele>
        <time>2020-02-21T08:16:40.040Z</time>
      </trkpt>
      <trkpt lat="44.69466" lon="6.85358">
        <ele>1942</ele>
        <time>2020-02-21T08:16:58.010Z</time>
      </trkpt>
      <trkpt lat="44.69453" lon="6.85348">
        <ele>1942.52</ele>
        <time>2020-02-21T08:17:08.010Z</time>
      </trkpt>
      <trkpt lat="44.6944" lon="6.85349">
        <ele>1943</ele>
        <time>2020-02-21T08:17:14.040Z</time>
      </trkpt>
      <trkpt lat="44.6943" lon="6.85347">
        <ele>1943.63800064</ele>
        <time>2020-02-21T08:17:26.000Z</time>
      </trkpt>
      <trkpt lat="44.69422" lon="6.85352">
        <ele>1945.23400192</ele>
        <time>2020-02-21T08:17:33.980Z</time>
      </trkpt>
      <trkpt lat="44.6943" lon="6.85356">
        <ele>1947.12</ele>
        <time>2020-02-21T08:17:44.010Z</time>
      </trkpt>
      <trkpt lat="44.69422" lon="6.8536">
        <ele>1948.24300032</ele>
        <time>2020-02-21T08:17:55.240Z</time>
      </trkpt>
      <trkpt lat="44.69431" lon="6.85368">
        <ele>1948.72</ele>
        <time>2020-02-21T08:18:00.010Z</time>
      </trkpt>
      <trkpt lat="44.69438" lon="6.85377">
        <ele>1950.84</ele>
        <time>2020-02-21T08:18:12.010Z</time>
      </trkpt>
      <trkpt lat="44.69446" lon="6.85387">
        <ele>1951.92</ele>
        <time>2020-02-21T08:18:22.010Z</time>
      </trkpt>
      <trkpt lat="44.69434" lon="6.85391">
        <ele>1954.6619861704</ele>
        <time>2020-02-21T08:18:35.040Z</time>
      </trkpt>
      <trkpt lat="44.69442" lon="6.85384">
        <ele>1957</ele>
        <time>2020-02-21T08:18:46.010Z</time>
      </trkpt>
      <trkpt lat="44.69427" lon="6.85388">
        <ele>1959.24600064</ele>
        <time>2020-02-21T08:19:09.040Z</time>
      </trkpt>
      <trkpt lat="44.69436" lon="6.85379">
        <ele>1960.04</ele>
        <time>2020-02-21T08:19:13.010Z</time>
      </trkpt>
      <trkpt lat="44.69425" lon="6.85384">
        <ele>1961.44</ele>
        <time>2020-02-21T08:19:20.010Z</time>
      </trkpt>
      <trkpt lat="44.6942" lon="6.85395">
        <ele>1964.7966804979</ele>
        <time>2020-02-21T08:19:47.010Z</time>
      </trkpt>
      <trkpt lat="44.69423" lon="6.85412">
        <ele>1966.72</ele>
        <time>2020-02-21T08:20:00.010Z</time>
      </trkpt>
      <trkpt lat="44.69432" lon="6.85411">
        <ele>1970.4353054155</ele>
        <time>2020-02-21T08:20:25.010Z</time>
      </trkpt>
      <trkpt lat="44.69424" lon="6.85416">
        <ele>1971.037111025</ele>
        <time>2020-02-21T08:20:28.010Z</time>
      </trkpt>
      <trkpt lat="44.69427" lon="6.85428">
        <ele>1974.24</ele>
        <time>2020-02-21T08:20:44.010Z</time>
      </trkpt>
      <trkpt lat="44.69415" lon="6.85448">
        <ele>1976.32</ele>
        <time>2020-02-21T08:20:56.010Z</time>
      </trkpt>
      <trkpt lat="44.69409" lon="6.85457">
        <ele>1977.32</ele>
        <time>2020-02-21T08:21:06.010Z</time>
      </trkpt>
      <trkpt lat="44.69399" lon="6.85457">
        <ele>1979.5584420566</ele>
        <time>2020-02-21T08:21:18.010Z</time>
      </trkpt>
      <trkpt lat="44.69387" lon="6.85464">
        <ele>1981.4194196054</ele>
        <time>2020-02-21T08:21:27.010Z</time>
      </trkpt>
      <trkpt lat="44.69378" lon="6.85464">
        <ele>1983.04</ele>
        <time>2020-02-21T08:21:38.010Z</time>
      </trkpt>
      <trkpt lat="44.69369" lon="6.85459">
        <ele>1984.42</ele>
        <time>2020-02-21T08:21:47.010Z</time>
      </trkpt>
      <trkpt lat="44.69361" lon="6.85446">
        <ele>1983.16</ele>
        <time>2020-02-21T08:22:02.010Z</time>
      </trkpt>
      <trkpt lat="44.69344" lon="6.85437">
        <ele>1984</ele>
        <time>2020-02-21T08:22:20.010Z</time>
      </trkpt>
      <trkpt lat="44.69353" lon="6.85441">
        <ele>1984</ele>
        <time>2020-02-21T08:22:26.010Z</time>
      </trkpt>
      <trkpt lat="44.69362" lon="6.85446">
        <ele>1984.84</ele>
        <time>2020-02-21T08:22:37.010Z</time>
      </trkpt>
      <trkpt lat="44.6936" lon="6.85459">
        <ele>1987.3913039177</ele>
        <time>2020-02-21T08:22:50.010Z</time>
      </trkpt>
      <trkpt lat="44.69351" lon="6.85461">
        <ele>1988.606217486</ele>
        <time>2020-02-21T08:22:59.010Z</time>
      </trkpt>
      <trkpt lat="44.69342" lon="6.85467">
        <ele>1989</ele>
        <time>2020-02-21T08:23:03.010Z</time>
      </trkpt>
      <trkpt lat="44.69329" lon="6.85472">
        <ele>1989</ele>
        <time>2020-02-21T08:23:08.010Z</time>
      </trkpt>
      <trkpt lat="44.69316" lon="6.85471">
        <ele>1993.04</ele>
        <time>2020-02-21T08:23:38.010Z</time>
      </trkpt>
      <trkpt lat="44.6931" lon="6.85481">
        <ele>1995.64</ele>
        <time>2020-02-21T08:23:51.010Z</time>
      </trkpt>
      <trkpt lat="44.69301" lon="6.85485">
        <ele>1996.32</ele>
        <time>2020-02-21T08:23:56.010Z</time>
      </trkpt>
      <trkpt lat="44.69299" lon="6.85472">
        <ele>1997.5978779422</ele>
        <time>2020-02-21T08:24:09.010Z</time>
      </trkpt>
      <trkpt lat="44.6929" lon="6.85468">
        <ele>1998.6053993989</ele>
        <time>2020-02-21T08:24:19.010Z</time>
      </trkpt>
      <trkpt lat="44.6928" lon="6.85467">
        <ele>2000.0368890012</ele>
        <time>2020-02-21T08:24:28.010Z</time>
      </trkpt>
      <trkpt lat="44.69272" lon="6.8546">
        <ele>2003.92</ele>
        <time>2020-02-21T08:24:52.010Z</time>
      </trkpt>
      <trkpt lat="44.69264" lon="6.85462">
        <ele>2005.86900096</ele>
        <time>2020-02-21T08:24:59.040Z</time>
      </trkpt>
      <trkpt lat="44.69256" lon="6.85469">
        <ele>2007.62</ele>
        <time>2020-02-21T08:25:09.010Z</time>
      </trkpt>
      <trkpt lat="44.69247" lon="6.85474">
        <ele>2009.23599872</ele>
        <time>2020-02-21T08:25:24.010Z</time>
      </trkpt>
      <trkpt lat="44.69239" lon="6.85477">
        <ele>2011.0360708849</ele>
        <time>2020-02-21T08:25:33.010Z</time>
      </trkpt>
      <trkpt lat="44.69231" lon="6.8547">
        <ele>2013.44</ele>
        <time>2020-02-21T08:25:45.010Z</time>
      </trkpt>
      <trkpt lat="44.69224" lon="6.85458">
        <ele>2015</ele>
        <time>2020-02-21T08:25:59.010Z</time>
      </trkpt>
      <trkpt lat="44.69221" lon="6.85445">
        <ele>2017.52</ele>
        <time>2020-02-21T08:26:18.010Z</time>
      </trkpt>
      <trkpt lat="44.69228" lon="6.85437">
        <ele>2019.2216744917</ele>
        <time>2020-02-21T08:26:29.010Z</time>
      </trkpt>
      <trkpt lat="44.69223" lon="6.85427">
        <ele>2023.04</ele>
        <time>2020-02-21T08:26:53.010Z</time>
      </trkpt>
      <trkpt lat="44.69232" lon="6.85424">
        <ele>2025</ele>
        <time>2020-02-21T08:27:08.010Z</time>
      </trkpt>
      <trkpt lat="44.6924" lon="6.8542">
        <ele>2026.24</ele>
        <time>2020-02-21T08:27:19.010Z</time>
      </trkpt>
      <trkpt lat="44.6923" lon="6.85421">
        <ele>2029.019379845</ele>
        <time>2020-02-21T08:27:43.010Z</time>
      </trkpt>
      <trkpt lat="44.69219" lon="6.85423">
        <ele>2029.4069767442</ele>
        <time>2020-02-21T08:27:47.010Z</time>
      </trkpt>
      <trkpt lat="44.69209" lon="6.85423">
        <ele>2029.7945736434</ele>
        <time>2020-02-21T08:27:51.010Z</time>
      </trkpt>
      <trkpt lat="44.692" lon="6.85428">
        <ele>2030.4008264463</ele>
        <time>2020-02-21T08:27:57.010Z</time>
      </trkpt>
      <trkpt lat="44.69191" lon="6.85428">
        <ele>2030.8140495868</ele>
        <time>2020-02-21T08:28:01.010Z</time>
      </trkpt>
      <trkpt lat="44.69181" lon="6.85433">
        <ele>2031.66</ele>
        <time>2020-02-21T08:28:05.010Z</time>
      </trkpt>
      <trkpt lat="44.69172" lon="6.85435">
        <ele>2034.04</ele>
        <time>2020-02-21T08:28:13.010Z</time>
      </trkpt>
      <trkpt lat="44.6916" lon="6.85442">
        <ele>2036</ele>
        <time>2020-02-21T08:28:26.010Z</time>
      </trkpt>
      <trkpt lat="44.69152" lon="6.85449">
        <ele>2036.4368727451</ele>
        <time>2020-02-21T08:28:35.010Z</time>
      </trkpt>
      <trkpt lat="44.69144" lon="6.85458">
        <ele>2038.8374872702</ele>
        <time>2020-02-21T08:28:47.010Z</time>
      </trkpt>
      <trkpt lat="44.69135" lon="6.85459">
        <ele>2040.5185555125</ele>
        <time>2020-02-21T08:28:58.010Z</time>
      </trkpt>
      <trkpt lat="44.69126" lon="6.85464">
        <ele>2042.0106283252</ele>
        <time>2020-02-21T08:29:08.040Z</time>
      </trkpt>
      <trkpt lat="44.69131" lon="6.85475">
        <ele>2045.22</ele>
        <time>2020-02-21T08:29:25.010Z</time>
      </trkpt>
      <trkpt lat="44.6923" lon="6.85455">
        <ele>2045.92</ele>
        <time>2020-02-21T08:29:32.010Z</time>
      </trkpt>
      <trkpt lat="44.69215" lon="6.85456">
        <ele>2046.04</ele>
        <time>2020-02-21T08:29:33.010Z</time>
      </trkpt>
      <trkpt lat="44.69206" lon="6.85459">
        <ele>2046.44</ele>
        <time>2020-02-21T08:29:35.010Z</time>
      </trkpt>
      <trkpt lat="44.692" lon="6.85472">
        <ele>2047.64</ele>
        <time>2020-02-21T08:29:41.010Z</time>
      </trkpt>
      <trkpt lat="44.69209" lon="6.85476">
        <ele>2048.2193419041</ele>
        <time>2020-02-21T08:29:45.010Z</time>
      </trkpt>
      <trkpt lat="44.69198" lon="6.85471">
        <ele>2048.5184445006</ele>
        <time>2020-02-21T08:29:48.010Z</time>
      </trkpt>
      <trkpt lat="44.69187" lon="6.85476">
        <ele>2049.953860928</ele>
        <time>2020-02-21T08:29:56.010Z</time>
      </trkpt>
      <trkpt lat="44.69177" lon="6.85478">
        <ele>2050.5556665374</ele>
        <time>2020-02-21T08:29:58.010Z</time>
      </trkpt>
      <trkpt lat="44.69169" lon="6.85484">
        <ele>2052.44600064</ele>
        <time>2020-02-21T08:30:15.040Z</time>
      </trkpt>
      <trkpt lat="44.6916" lon="6.85488">
        <ele>2053.24</ele>
        <time>2020-02-21T08:30:19.010Z</time>
      </trkpt>
      <trkpt lat="44.6915" lon="6.85491">
        <ele>2055.64</ele>
        <time>2020-02-21T08:30:31.010Z</time>
      </trkpt>
      <trkpt lat="44.69139" lon="6.85497">
        <ele>2056.32</ele>
        <time>2020-02-21T08:30:36.010Z</time>
      </trkpt>
      <trkpt lat="44.69124" lon="6.85502">
        <ele>2056.52</ele>
        <time>2020-02-21T08:30:38.010Z</time>
      </trkpt>
      <trkpt lat="44.6913" lon="6.85513">
        <ele>2059.16</ele>
        <time>2020-02-21T08:30:50.010Z</time>
      </trkpt>
      <trkpt lat="44.69138" lon="6.85519">
        <ele>2061.1192842184</ele>
        <time>2020-02-21T08:31:04.010Z</time>
      </trkpt>
      <trkpt lat="44.69148" lon="6.85515">
        <ele>2062.1146875588</ele>
        <time>2020-02-21T08:31:14.010Z</time>
      </trkpt>
      <trkpt lat="44.69144" lon="6.85528">
        <ele>2066.2371848721</ele>
        <time>2020-02-21T08:31:44.040Z</time>
      </trkpt>
      <trkpt lat="44.69135" lon="6.85536">
        <ele>2071.44</ele>
        <time>2020-02-21T08:32:10.010Z</time>
      </trkpt>
      <trkpt lat="44.69145" lon="6.85541">
        <ele>2074.7983464576</ele>
        <time>2020-02-21T08:32:30.860Z</time>
      </trkpt>
      <trkpt lat="44.69155" lon="6.85543">
        <ele>2075.64</ele>
        <time>2020-02-21T08:32:36.010Z</time>
      </trkpt>
      <trkpt lat="44.69164" lon="6.8554">
        <ele>2077.44</ele>
        <time>2020-02-21T08:32:45.010Z</time>
      </trkpt>
      <trkpt lat="44.69173" lon="6.85548">
        <ele>2079.3171457894</ele>
        <time>2020-02-21T08:32:56.010Z</time>
      </trkpt>
      <trkpt lat="44.69183" lon="6.85551">
        <ele>2080.2240167188</ele>
        <time>2020-02-21T08:33:04.010Z</time>
      </trkpt>
      <trkpt lat="44.69171" lon="6.8556">
        <ele>2082.92</ele>
        <time>2020-02-21T08:33:22.010Z</time>
      </trkpt>
      <trkpt lat="44.69161" lon="6.8556">
        <ele>2083.9571283088</ele>
        <time>2020-02-21T08:33:26.010Z</time>
      </trkpt>
      <trkpt lat="44.69152" lon="6.85574">
        <ele>2086.7191573823</ele>
        <time>2020-02-21T08:33:40.010Z</time>
      </trkpt>
      <trkpt lat="44.69143" lon="6.85578">
        <ele>2086.9197592521</ele>
        <time>2020-02-21T08:33:42.010Z</time>
      </trkpt>
      <trkpt lat="44.69139" lon="6.85593">
        <ele>2089</ele>
        <time>2020-02-21T08:33:53.010Z</time>
      </trkpt>
      <trkpt lat="44.69131" lon="6.85602">
        <ele>2089</ele>
        <time>2020-02-21T08:34:02.010Z</time>
      </trkpt>
      <trkpt lat="44.69123" lon="6.85609">
        <ele>2090.24</ele>
        <time>2020-02-21T08:34:09.010Z</time>
      </trkpt>
      <trkpt lat="44.69117" lon="6.85619">
        <ele>2091.82</ele>
        <time>2020-02-21T08:34:21.010Z</time>
      </trkpt>
      <trkpt lat="44.69123" lon="6.85635">
        <ele>2092.04</ele>
        <time>2020-02-21T08:34:33.010Z</time>
      </trkpt>
      <trkpt lat="44.69118" lon="6.85646">
        <ele>2094.0229543965</ele>
        <time>2020-02-21T08:34:43.040Z</time>
      </trkpt>
      <trkpt lat="44.69203" lon="6.85589">
        <ele>2095.0360708849</ele>
        <time>2020-02-21T08:34:53.010Z</time>
      </trkpt>
      <trkpt lat="44.69195" lon="6.85596">
        <ele>2095.8376746053</ele>
        <time>2020-02-21T08:34:57.010Z</time>
      </trkpt>
      <trkpt lat="44.69184" lon="6.85602">
        <ele>2100.24</ele>
        <time>2020-02-21T08:35:19.010Z</time>
      </trkpt>
      <trkpt lat="44.69177" lon="6.85611">
        <ele>2101.0193610902</ele>
        <time>2020-02-21T08:35:23.010Z</time>
      </trkpt>
      <trkpt lat="44.69174" lon="6.85625">
        <ele>2101.6969992479</ele>
        <time>2020-02-21T08:35:30.010Z</time>
      </trkpt>
      <trkpt lat="44.69171" lon="6.85637">
        <ele>2102.5025798117</ele>
        <time>2020-02-21T08:35:38.010Z</time>
      </trkpt>
      <trkpt lat="44.69168" lon="6.85649">
        <ele>2104.4388773957</ele>
        <time>2020-02-21T08:35:50.010Z</time>
      </trkpt>
      <trkpt lat="44.69164" lon="6.85661">
        <ele>2105.04</ele>
        <time>2020-02-21T08:36:03.010Z</time>
      </trkpt>
      <trkpt lat="44.69153" lon="6.85666">
        <ele>2107.02300032</ele>
        <time>2020-02-21T08:36:13.040Z</time>
      </trkpt>
      <trkpt lat="44.69146" lon="6.85676">
        <ele>2107.62</ele>
        <time>2020-02-21T08:36:19.010Z</time>
      </trkpt>
      <trkpt lat="44.69142" lon="6.85691">
        <ele>2111.68</ele>
        <time>2020-02-21T08:36:32.010Z</time>
      </trkpt>
      <trkpt lat="44.6913" lon="6.85695">
        <ele>2112.62300032</ele>
        <time>2020-02-21T08:36:39.040Z</time>
      </trkpt>
      <trkpt lat="44.69127" lon="6.85707">
        <ele>2114.84</ele>
        <time>2020-02-21T08:36:52.010Z</time>
      </trkpt>
      <trkpt lat="44.6912" lon="6.85715">
        <ele>2115.82</ele>
        <time>2020-02-21T08:37:01.010Z</time>
      </trkpt>
      <trkpt lat="44.69109" lon="6.85712">
        <ele>2116.6387221469</ele>
        <time>2020-02-21T08:37:06.010Z</time>
      </trkpt>
      <trkpt lat="44.69104" lon="6.85724">
        <ele>2118.5190377677</ele>
        <time>2020-02-21T08:37:18.010Z</time>
      </trkpt>
      <trkpt lat="44.69101" lon="6.85736">
        <ele>2119.32</ele>
        <time>2020-02-21T08:37:26.010Z</time>
      </trkpt>
      <trkpt lat="44.69102" lon="6.85749">
        <ele>2122.02</ele>
        <time>2020-02-21T08:37:43.010Z</time>
      </trkpt>
      <trkpt lat="44.69094" lon="6.85756">
        <ele>2123.12</ele>
        <time>2020-02-21T08:37:54.010Z</time>
      </trkpt>
      <trkpt lat="44.69085" lon="6.85757">
        <ele>2124.04</ele>
        <time>2020-02-21T08:38:03.010Z</time>
      </trkpt>
      <trkpt lat="44.69075" lon="6.85756">
        <ele>2127.3193195374</ele>
        <time>2020-02-21T08:38:26.010Z</time>
      </trkpt>
      <trkpt lat="44.69067" lon="6.85758">
        <ele>2127.8198198775</ele>
        <time>2020-02-21T08:38:31.010Z</time>
      </trkpt>
      <trkpt lat="44.69055" lon="6.85763">
        <ele>2128.811593952</ele>
        <time>2020-02-21T08:38:37.010Z</time>
      </trkpt>
      <trkpt lat="44.69046" lon="6.85766">
        <ele>2131.212434972</ele>
        <time>2020-02-21T08:38:49.010Z</time>
      </trkpt>
      <trkpt lat="44.69038" lon="6.85772">
        <ele>2133.12</ele>
        <time>2020-02-21T08:39:04.010Z</time>
      </trkpt>
      <trkpt lat="44.69029" lon="6.85776">
        <ele>2133.92</ele>
        <time>2020-02-21T08:39:12.010Z</time>
      </trkpt>
      <trkpt lat="44.69023" lon="6.85786">
        <ele>2138.44</ele>
        <time>2020-02-21T08:39:30.010Z</time>
      </trkpt>
      <trkpt lat="44.69015" lon="6.85793">
        <ele>2140.56</ele>
        <time>2020-02-21T08:39:38.010Z</time>
      </trkpt>
      <trkpt lat="44.69008" lon="6.85802">
        <ele>2142.42</ele>
        <time>2020-02-21T08:39:47.010Z</time>
      </trkpt>
      <trkpt lat="44.69006" lon="6.85815">
        <ele>2144.84</ele>
        <time>2020-02-21T08:40:07.010Z</time>
      </trkpt>
      <trkpt lat="44.68997" lon="6.85819">
        <ele>2148.22</ele>
        <time>2020-02-21T08:40:35.010Z</time>
      </trkpt>
      <trkpt lat="44.68988" lon="6.85823">
        <ele>2150.04</ele>
        <time>2020-02-21T08:40:48.010Z</time>
      </trkpt>
      <trkpt lat="44.68978" lon="6.85821">
        <ele>2152.56900096</ele>
        <time>2020-02-21T08:40:58.040Z</time>
      </trkpt>
      <trkpt lat="44.68969" lon="6.85823">
        <ele>2155.6383621621</ele>
        <time>2020-02-21T08:41:11.010Z</time>
      </trkpt>
      <trkpt lat="44.68962" lon="6.85832">
        <ele>2156.9199199456</ele>
        <time>2020-02-21T08:41:22.010Z</time>
      </trkpt>
      <trkpt lat="44.68956" lon="6.85841">
        <ele>2159</ele>
        <time>2020-02-21T08:41:36.010Z</time>
      </trkpt>
      <trkpt lat="44.68952" lon="6.85853">
        <ele>2160.0058020854</ele>
        <time>2020-02-21T08:41:48.010Z</time>
      </trkpt>
      <trkpt lat="44.68945" lon="6.85863">
        <ele>2163</ele>
        <time>2020-02-21T08:42:12.010Z</time>
      </trkpt>
      <trkpt lat="44.68937" lon="6.85869">
        <ele>2163.6820463573</ele>
        <time>2020-02-21T08:43:46.010Z</time>
      </trkpt>
      <trkpt lat="44.68935" lon="6.85856">
        <ele>2159.4</ele>
        <time>2020-02-21T08:44:00.010Z</time>
      </trkpt>
      <trkpt lat="44.68936" lon="6.85843">
        <ele>2157.58</ele>
        <time>2020-02-21T08:44:07.010Z</time>
      </trkpt>
      <trkpt lat="44.68935" lon="6.8583">
        <ele>2156.98</ele>
        <time>2020-02-21T08:44:13.010Z</time>
      </trkpt>
      <trkpt lat="44.68942" lon="6.85816">
        <ele>2156</ele>
        <time>2020-02-21T08:44:30.010Z</time>
      </trkpt>
      <trkpt lat="44.6895" lon="6.85808">
        <ele>2156</ele>
        <time>2020-02-21T08:45:07.010Z</time>
      </trkpt>
      <trkpt lat="44.68958" lon="6.85804">
        <ele>2158.0371110249</ele>
        <time>2020-02-21T08:46:38.010Z</time>
      </trkpt>
      <trkpt lat="44.68965" lon="6.85812">
        <ele>2161</ele>
        <time>2020-02-21T08:46:53.010Z</time>
      </trkpt>
      <trkpt lat="44.68966" lon="6.85826">
        <ele>2161.0598802013</ele>
        <time>2020-02-21T08:47:03.010Z</time>
      </trkpt>
      <trkpt lat="44.68957" lon="6.85831">
        <ele>2164</ele>
        <time>2020-02-21T08:47:26.480Z</time>
      </trkpt>
      <trkpt lat="44.68948" lon="6.85843">
        <ele>2164.32300032</ele>
        <time>2020-02-21T08:47:46.040Z</time>
      </trkpt>
      <trkpt lat="44.68941" lon="6.85851">
        <ele>2164.1900303452</ele>
        <time>2020-02-21T08:48:15.010Z</time>
      </trkpt>
      <trkpt lat="44.68938" lon="6.85863">
        <ele>2166</ele>
        <time>2020-02-21T08:48:58.010Z</time>
      </trkpt>
      <trkpt lat="44.68936" lon="6.85875">
        <ele>2166.72</ele>
        <time>2020-02-21T08:49:10.010Z</time>
      </trkpt>
      <trkpt lat="44.68932" lon="6.85887">
        <ele>2168</ele>
        <time>2020-02-21T08:49:23.010Z</time>
      </trkpt>
      <trkpt lat="44.68927" lon="6.85898">
        <ele>2168</ele>
        <time>2020-02-21T08:49:33.010Z</time>
      </trkpt>
      <trkpt lat="44.68919" lon="6.85905">
        <ele>2168.04</ele>
        <time>2020-02-21T08:49:43.010Z</time>
      </trkpt>
      <trkpt lat="44.68911" lon="6.85912">
        <ele>2170.12</ele>
        <time>2020-02-21T08:49:54.010Z</time>
      </trkpt>
      <trkpt lat="44.68903" lon="6.8592">
        <ele>2171.22</ele>
        <time>2020-02-21T08:50:05.010Z</time>
      </trkpt>
      <trkpt lat="44.68895" lon="6.85928">
        <ele>2172.84</ele>
        <time>2020-02-21T08:50:17.010Z</time>
      </trkpt>
      <trkpt lat="44.68891" lon="6.85939">
        <ele>2174.72</ele>
        <time>2020-02-21T08:50:30.010Z</time>
      </trkpt>
      <trkpt lat="44.68883" lon="6.85945">
        <ele>2177.42</ele>
        <time>2020-02-21T08:50:47.010Z</time>
      </trkpt>
      <trkpt lat="44.68874" lon="6.85951">
        <ele>2180.12</ele>
        <time>2020-02-21T08:51:04.010Z</time>
      </trkpt>
      <trkpt lat="44.6887" lon="6.85963">
        <ele>2182.0048306072</ele>
        <time>2020-02-21T08:51:18.010Z</time>
      </trkpt>
      <trkpt lat="44.68868" lon="6.85976">
        <ele>2183.5025905086</ele>
        <time>2020-02-21T08:51:28.010Z</time>
      </trkpt>
      <trkpt lat="44.68866" lon="6.85989">
        <ele>2184.62</ele>
        <time>2020-02-21T08:51:39.010Z</time>
      </trkpt>
      <trkpt lat="44.68862" lon="6.86002">
        <ele>2185</ele>
        <time>2020-02-21T08:51:50.010Z</time>
      </trkpt>
      <trkpt lat="44.68856" lon="6.86011">
        <ele>2185.82</ele>
        <time>2020-02-21T08:52:01.010Z</time>
      </trkpt>
      <trkpt lat="44.68853" lon="6.86023">
        <ele>2187.36</ele>
        <time>2020-02-21T08:52:14.010Z</time>
      </trkpt>
      <trkpt lat="44.68848" lon="6.86034">
        <ele>2190.3190427696</ele>
        <time>2020-02-21T08:52:26.010Z</time>
      </trkpt>
      <trkpt lat="44.68842" lon="6.86044">
        <ele>2192.6389166344</ele>
        <time>2020-02-21T08:52:41.010Z</time>
      </trkpt>
      <trkpt lat="44.6884" lon="6.86057">
        <ele>2193.92</ele>
        <time>2020-02-21T08:52:52.010Z</time>
      </trkpt>
      <trkpt lat="44.68842" lon="6.86071">
        <ele>2196.44</ele>
        <time>2020-02-21T08:53:05.010Z</time>
      </trkpt>
      <trkpt lat="44.68842" lon="6.86084">
        <ele>2200.24</ele>
        <time>2020-02-21T08:53:24.010Z</time>
      </trkpt>
      <trkpt lat="44.6883" lon="6.86081">
        <ele>2201.64</ele>
        <time>2020-02-21T08:53:31.010Z</time>
      </trkpt>
      <trkpt lat="44.68824" lon="6.86091">
        <ele>2203.2240167188</ele>
        <time>2020-02-21T08:53:44.010Z</time>
      </trkpt>
      <trkpt lat="44.68818" lon="6.861">
        <ele>2207.64</ele>
        <time>2020-02-21T08:54:06.010Z</time>
      </trkpt>
      <trkpt lat="44.68814" lon="6.86112">
        <ele>2210.0349163468</ele>
        <time>2020-02-21T08:54:23.010Z</time>
      </trkpt>
      <trkpt lat="44.68807" lon="6.86122">
        <ele>2213.6008280949</ele>
        <time>2020-02-21T08:54:37.010Z</time>
      </trkpt>
      <trkpt lat="44.688" lon="6.86131">
        <ele>2215.48</ele>
        <time>2020-02-21T08:54:48.010Z</time>
      </trkpt>
      <trkpt lat="44.68793" lon="6.86138">
        <ele>2217.76</ele>
        <time>2020-02-21T08:55:02.010Z</time>
      </trkpt>
      <trkpt lat="44.68785" lon="6.86143">
        <ele>2218</ele>
        <time>2020-02-21T08:55:10.010Z</time>
      </trkpt>
      <trkpt lat="44.68776" lon="6.86148">
        <ele>2219.64</ele>
        <time>2020-02-21T08:55:21.010Z</time>
      </trkpt>
      <trkpt lat="44.68768" lon="6.86154">
        <ele>2222.2193419041</ele>
        <time>2020-02-21T08:55:35.010Z</time>
      </trkpt>
      <trkpt lat="44.6876" lon="6.86162">
        <ele>2223.6188564474</ele>
        <time>2020-02-21T08:55:49.010Z</time>
      </trkpt>
      <trkpt lat="44.68752" lon="6.86167">
        <ele>2224.92</ele>
        <time>2020-02-21T08:56:02.010Z</time>
      </trkpt>
      <trkpt lat="44.68743" lon="6.86174">
        <ele>2226.24</ele>
        <time>2020-02-21T08:56:14.010Z</time>
      </trkpt>
      <trkpt lat="44.68736" lon="6.86183">
        <ele>2228.42</ele>
        <time>2020-02-21T08:56:27.010Z</time>
      </trkpt>
      <trkpt lat="44.68728" lon="6.86192">
        <ele>2229.4187436351</ele>
        <time>2020-02-21T08:56:37.010Z</time>
      </trkpt>
      <trkpt lat="44.6872" lon="6.86198">
        <ele>2230.3179536427</ele>
        <time>2020-02-21T08:56:46.010Z</time>
      </trkpt>
      <trkpt lat="44.68713" lon="6.86206">
        <ele>2231.52</ele>
        <time>2020-02-21T08:56:58.010Z</time>
      </trkpt>
      <trkpt lat="44.68706" lon="6.86215">
        <ele>2234</ele>
        <time>2020-02-21T08:57:13.010Z</time>
      </trkpt>
      <trkpt lat="44.68697" lon="6.86222">
        <ele>2234.04</ele>
        <time>2020-02-21T08:57:23.010Z</time>
      </trkpt>
      <trkpt lat="44.68689" lon="6.86227">
        <ele>2236.2125603208</ele>
        <time>2020-02-21T08:57:35.010Z</time>
      </trkpt>
      <trkpt lat="44.68681" lon="6.86234">
        <ele>2238.0051810173</ele>
        <time>2020-02-21T08:57:48.010Z</time>
      </trkpt>
      <trkpt lat="44.68673" lon="6.86239">
        <ele>2239.52</ele>
        <time>2020-02-21T08:57:58.010Z</time>
      </trkpt>
      <trkpt lat="44.68666" lon="6.86249">
        <ele>2241.84600064</ele>
        <time>2020-02-21T08:58:12.040Z</time>
      </trkpt>
      <trkpt lat="44.68659" lon="6.86259">
        <ele>2242.12</ele>
        <time>2020-02-21T08:58:24.010Z</time>
      </trkpt>
      <trkpt lat="44.68652" lon="6.86268">
        <ele>2243.84</ele>
        <time>2020-02-21T08:58:37.010Z</time>
      </trkpt>
      <trkpt lat="44.68644" lon="6.86275">
        <ele>2245.5184445006</ele>
        <time>2020-02-21T08:58:48.010Z</time>
      </trkpt>
      <trkpt lat="44.68635" lon="6.8628">
        <ele>2247.2377128948</ele>
        <time>2020-02-21T08:58:59.010Z</time>
      </trkpt>
      <trkpt lat="44.68627" lon="6.86287">
        <ele>2252.0180354424</ele>
        <time>2020-02-21T08:59:13.010Z</time>
      </trkpt>
      <trkpt lat="44.68619" lon="6.86294">
        <ele>2253.82</ele>
        <time>2020-02-21T08:59:31.010Z</time>
      </trkpt>
      <trkpt lat="44.6861" lon="6.863">
        <ele>2255.24</ele>
        <time>2020-02-21T08:59:44.010Z</time>
      </trkpt>
      <trkpt lat="44.68602" lon="6.86304">
        <ele>2258.56</ele>
        <time>2020-02-21T08:59:58.010Z</time>
      </trkpt>
      <trkpt lat="44.68593" lon="6.86309">
        <ele>2260.5189617444</ele>
        <time>2020-02-21T09:00:08.010Z</time>
      </trkpt>
      <trkpt lat="44.68584" lon="6.86313">
        <ele>2261.9198396279</ele>
        <time>2020-02-21T09:00:22.010Z</time>
      </trkpt>
      <trkpt lat="44.68574" lon="6.86317">
        <ele>2263.84</ele>
        <time>2020-02-21T09:00:37.010Z</time>
      </trkpt>
      <trkpt lat="44.68566" lon="6.86324">
        <ele>2265.6943098683</ele>
        <time>2020-02-21T09:00:50.010Z</time>
      </trkpt>
      <trkpt lat="44.68558" lon="6.8633">
        <ele>2266.04</ele>
        <time>2020-02-21T09:01:03.010Z</time>
      </trkpt>
      <trkpt lat="44.6855" lon="6.86338">
        <ele>2268.12</ele>
        <time>2020-02-21T09:01:14.010Z</time>
      </trkpt>
      <trkpt lat="44.68541" lon="6.86343">
        <ele>2269.2392820772</ele>
        <time>2020-02-21T09:01:24.010Z</time>
      </trkpt>
      <trkpt lat="44.68537" lon="6.86354">
        <ele>2272.4383147645</ele>
        <time>2020-02-21T09:01:40.010Z</time>
      </trkpt>
      <trkpt lat="44.68528" lon="6.86359">
        <ele>2277.32</ele>
        <time>2020-02-21T09:01:56.010Z</time>
      </trkpt>
      <trkpt lat="44.68519" lon="6.86361">
        <ele>2279.64</ele>
        <time>2020-02-21T09:02:11.010Z</time>
      </trkpt>
      <trkpt lat="44.6851" lon="6.86356">
        <ele>2282.3179536427</ele>
        <time>2020-02-21T09:02:26.010Z</time>
      </trkpt>
      <trkpt lat="44.68501" lon="6.86355">
        <ele>2284.04</ele>
        <time>2020-02-21T09:02:38.010Z</time>
      </trkpt>
      <trkpt lat="44.68492" lon="6.8636">
        <ele>2286.42</ele>
        <time>2020-02-21T09:02:57.010Z</time>
      </trkpt>
      <trkpt lat="44.68485" lon="6.86369">
        <ele>2291.0360708849</ele>
        <time>2020-02-21T09:03:33.010Z</time>
      </trkpt>
      <trkpt lat="44.68482" lon="6.86383">
        <ele>2293.42</ele>
        <time>2020-02-21T09:03:47.010Z</time>
      </trkpt>
      <trkpt lat="44.68474" lon="6.86391">
        <ele>2296.3768108593</ele>
        <time>2020-02-21T09:04:01.010Z</time>
      </trkpt>
      <trkpt lat="44.68468" lon="6.864">
        <ele>2299.82</ele>
        <time>2020-02-21T09:04:21.010Z</time>
      </trkpt>
      <trkpt lat="44.68461" lon="6.86409">
        <ele>2302.2547637327</ele>
        <time>2020-02-21T09:04:37.010Z</time>
      </trkpt>
      <trkpt lat="44.68454" lon="6.86416">
        <ele>2306.76</ele>
        <time>2020-02-21T09:04:52.010Z</time>
      </trkpt>
      <trkpt lat="44.68448" lon="6.86426">
        <ele>2309.5189617444</ele>
        <time>2020-02-21T09:05:08.010Z</time>
      </trkpt>
      <trkpt lat="44.6844" lon="6.86434">
        <ele>2311.12</ele>
        <time>2020-02-21T09:05:24.010Z</time>
      </trkpt>
      <trkpt lat="44.68433" lon="6.86442">
        <ele>2312.84</ele>
        <time>2020-02-21T09:05:37.010Z</time>
      </trkpt>
      <trkpt lat="44.68427" lon="6.86452">
        <ele>2314.72</ele>
        <time>2020-02-21T09:05:50.010Z</time>
      </trkpt>
      <trkpt lat="44.68417" lon="6.86453">
        <ele>2317.6187620798</ele>
        <time>2020-02-21T09:06:09.010Z</time>
      </trkpt>
      <trkpt lat="44.6841" lon="6.86462">
        <ele>2319.2258064516</ele>
        <time>2020-02-21T09:06:24.010Z</time>
      </trkpt>
      <trkpt lat="44.68401" lon="6.86469">
        <ele>2321.84</ele>
        <time>2020-02-21T09:06:37.010Z</time>
      </trkpt>
      <trkpt lat="44.68392" lon="6.86472">
        <ele>2323.42</ele>
        <time>2020-02-21T09:06:47.010Z</time>
      </trkpt>
      <trkpt lat="44.68383" lon="6.86473">
        <ele>2324.72</ele>
        <time>2020-02-21T09:07:00.010Z</time>
      </trkpt>
      <trkpt lat="44.68374" lon="6.86475">
        <ele>2328.1968905938</ele>
        <time>2020-02-21T09:07:17.010Z</time>
      </trkpt>
      <trkpt lat="44.68365" lon="6.8647">
        <ele>2332.32</ele>
        <time>2020-02-21T09:07:36.010Z</time>
      </trkpt>
      <trkpt lat="44.68359" lon="6.86479">
        <ele>2333.04</ele>
        <time>2020-02-21T09:07:53.010Z</time>
      </trkpt>
      <trkpt lat="44.68357" lon="6.86492">
        <ele>2335.06</ele>
        <time>2020-02-21T09:08:03.010Z</time>
      </trkpt>
      <trkpt lat="44.68353" lon="6.86504">
        <ele>2338</ele>
        <time>2020-02-21T09:08:14.010Z</time>
      </trkpt>
      <trkpt lat="44.68354" lon="6.86517">
        <ele>2338.62</ele>
        <time>2020-02-21T09:08:29.010Z</time>
      </trkpt>
      <trkpt lat="44.68354" lon="6.8653">
        <ele>2340.4356924632</ele>
        <time>2020-02-21T09:08:40.010Z</time>
      </trkpt>
      <trkpt lat="44.68355" lon="6.86543">
        <ele>2342.0380386665</ele>
        <time>2020-02-21T09:08:53.010Z</time>
      </trkpt>
      <trkpt lat="44.68346" lon="6.86548">
        <ele>2344.52</ele>
        <time>2020-02-21T09:09:08.010Z</time>
      </trkpt>
      <trkpt lat="44.68337" lon="6.86551">
        <ele>2345.7185624153</ele>
        <time>2020-02-21T09:09:20.010Z</time>
      </trkpt>
      <trkpt lat="44.68331" lon="6.86561">
        <ele>2348.12</ele>
        <time>2020-02-21T09:09:34.010Z</time>
      </trkpt>
      <trkpt lat="44.68327" lon="6.86574">
        <ele>2349.84</ele>
        <time>2020-02-21T09:09:47.010Z</time>
      </trkpt>
      <trkpt lat="44.68324" lon="6.86587">
        <ele>2351</ele>
        <time>2020-02-21T09:10:00.010Z</time>
      </trkpt>
      <trkpt lat="44.68314" lon="6.86588">
        <ele>2356.0058020854</ele>
        <time>2020-02-21T09:10:18.010Z</time>
      </trkpt>
      <trkpt lat="44.68308" lon="6.86598">
        <ele>2358.44</ele>
        <time>2020-02-21T09:10:40.010Z</time>
      </trkpt>
      <trkpt lat="44.68306" lon="6.86612">
        <ele>2361.4182545776</ele>
        <time>2020-02-21T09:10:57.010Z</time>
      </trkpt>
      <trkpt lat="44.68298" lon="6.86618">
        <ele>2363.6350941942</ele>
        <time>2020-02-21T09:11:11.010Z</time>
      </trkpt>
      <trkpt lat="44.68289" lon="6.86615">
        <ele>2366</ele>
        <time>2020-02-21T09:11:25.010Z</time>
      </trkpt>
      <trkpt lat="44.6828" lon="6.8661">
        <ele>2366.8191810811</ele>
        <time>2020-02-21T09:11:41.010Z</time>
      </trkpt>
      <trkpt lat="44.68278" lon="6.86623">
        <ele>2368.96</ele>
        <time>2020-02-21T09:11:56.010Z</time>
      </trkpt>
      <trkpt lat="44.68278" lon="6.86636">
        <ele>2371.9172479626</ele>
        <time>2020-02-21T09:12:12.010Z</time>
      </trkpt>
      <trkpt lat="44.68279" lon="6.86649">
        <ele>2374.52</ele>
        <time>2020-02-21T09:12:28.010Z</time>
      </trkpt>
      <trkpt lat="44.6827" lon="6.86644">
        <ele>2378.24</ele>
        <time>2020-02-21T09:12:49.010Z</time>
      </trkpt>
      <trkpt lat="44.68262" lon="6.86638">
        <ele>2380.44</ele>
        <time>2020-02-21T09:13:00.010Z</time>
      </trkpt>
      <trkpt lat="44.68254" lon="6.86632">
        <ele>2383</ele>
        <time>2020-02-21T09:13:16.010Z</time>
      </trkpt>
      <trkpt lat="44.68249" lon="6.86643">
        <ele>2386.84</ele>
        <time>2020-02-21T09:13:47.010Z</time>
      </trkpt>
      <trkpt lat="44.68245" lon="6.86655">
        <ele>2390.04</ele>
        <time>2020-02-21T09:14:08.010Z</time>
      </trkpt>
      <trkpt lat="44.68245" lon="6.86668">
        <ele>2391.7185624153</ele>
        <time>2020-02-21T09:14:20.010Z</time>
      </trkpt>
      <trkpt lat="44.68246" lon="6.86683">
        <ele>2393.370742362</ele>
        <time>2020-02-21T09:14:29.670Z</time>
      </trkpt>
      <trkpt lat="44.68237" lon="6.86688">
        <ele>2399.24</ele>
        <time>2020-02-21T09:14:59.010Z</time>
      </trkpt>
      <trkpt lat="44.68235" lon="6.867">
        <ele>2401.72</ele>
        <time>2020-02-21T09:15:20.010Z</time>
      </trkpt>
      <trkpt lat="44.68233" lon="6.86713">
        <ele>2403.24</ele>
        <time>2020-02-21T09:15:34.010Z</time>
      </trkpt>
      <trkpt lat="44.68232" lon="6.86727">
        <ele>2407.12</ele>
        <time>2020-02-21T09:15:54.010Z</time>
      </trkpt>
      <trkpt lat="44.68227" lon="6.86737">
        <ele>2410.62</ele>
        <time>2020-02-21T09:16:19.010Z</time>
      </trkpt>
      <trkpt lat="44.68218" lon="6.86737">
        <ele>2413.4259439848</ele>
        <time>2020-02-21T09:16:35.010Z</time>
      </trkpt>
      <trkpt lat="44.68209" lon="6.86733">
        <ele>2418.22</ele>
        <time>2020-02-21T09:16:55.010Z</time>
      </trkpt>
      <trkpt lat="44.68201" lon="6.86724">
        <ele>2420.24</ele>
        <time>2020-02-21T09:17:09.010Z</time>
      </trkpt>
      <trkpt lat="44.68193" lon="6.86717">
        <ele>2424</ele>
        <time>2020-02-21T09:17:24.010Z</time>
      </trkpt>
      <trkpt lat="44.68188" lon="6.86728">
        <ele>2424.2193419041</ele>
        <time>2020-02-21T09:17:45.010Z</time>
      </trkpt>
      <trkpt lat="44.68183" lon="6.8674">
        <ele>2425.3179536427</ele>
        <time>2020-02-21T09:17:56.010Z</time>
      </trkpt>
      <trkpt lat="44.6818" lon="6.86753">
        <ele>2426.8374872702</ele>
        <time>2020-02-21T09:18:07.010Z</time>
      </trkpt>
      <trkpt lat="44.68181" lon="6.86766">
        <ele>2428</ele>
        <time>2020-02-21T09:18:21.010Z</time>
      </trkpt>
      <trkpt lat="44.68186" lon="6.86776">
        <ele>2430.06</ele>
        <time>2020-02-21T09:18:33.010Z</time>
      </trkpt>
      <trkpt lat="44.68192" lon="6.86787">
        <ele>2433.12</ele>
        <time>2020-02-21T09:18:44.010Z</time>
      </trkpt>
      <trkpt lat="44.68198" lon="6.86797">
        <ele>2434</ele>
        <time>2020-02-21T09:18:53.010Z</time>
      </trkpt>
      <trkpt lat="44.68205" lon="6.86806">
        <ele>2434.5184445006</ele>
        <time>2020-02-21T09:19:08.010Z</time>
      </trkpt>
      <trkpt lat="44.68212" lon="6.86814">
        <ele>2436.04</ele>
        <time>2020-02-21T09:19:23.010Z</time>
      </trkpt>
      <trkpt lat="44.68203" lon="6.86819">
        <ele>2444.04</ele>
        <time>2020-02-21T09:20:03.010Z</time>
      </trkpt>
      <trkpt lat="44.68194" lon="6.8682">
        <ele>2447.2362907322</ele>
        <time>2020-02-21T09:20:19.010Z</time>
      </trkpt>
      <trkpt lat="44.68185" lon="6.8682">
        <ele>2448</ele>
        <time>2020-02-21T09:20:31.010Z</time>
      </trkpt>
      <trkpt lat="44.68177" lon="6.86815">
        <ele>2450.84</ele>
        <time>2020-02-21T09:20:47.010Z</time>
      </trkpt>
      <trkpt lat="44.68169" lon="6.86807">
        <ele>2451.08</ele>
        <time>2020-02-21T09:21:02.010Z</time>
      </trkpt>
      <trkpt lat="44.68174" lon="6.86819">
        <ele>2453</ele>
        <time>2020-02-21T09:21:34.010Z</time>
      </trkpt>
      <trkpt lat="44.68178" lon="6.8683">
        <ele>2453.04</ele>
        <time>2020-02-21T09:21:43.010Z</time>
      </trkpt>
      <trkpt lat="44.6817" lon="6.86836">
        <ele>2461.82</ele>
        <time>2020-02-21T09:22:21.010Z</time>
      </trkpt>
      <trkpt lat="44.6816" lon="6.86834">
        <ele>2464.44</ele>
        <time>2020-02-21T09:22:35.010Z</time>
      </trkpt>
      <trkpt lat="44.68152" lon="6.86829">
        <ele>2467.04</ele>
        <time>2020-02-21T09:22:48.010Z</time>
      </trkpt>
      <trkpt lat="44.68144" lon="6.86823">
        <ele>2469.9748312023</ele>
        <time>2020-02-21T09:23:03.010Z</time>
      </trkpt>
      <trkpt lat="44.68141" lon="6.86836">
        <ele>2472.7191573823</ele>
        <time>2020-02-21T09:23:40.010Z</time>
      </trkpt>
      <trkpt lat="44.68146" lon="6.86848">
        <ele>2474.3520553186</ele>
        <time>2020-02-21T09:23:54.010Z</time>
      </trkpt>
      <trkpt lat="44.68152" lon="6.86858">
        <ele>2476.78</ele>
        <time>2020-02-21T09:24:05.010Z</time>
      </trkpt>
      <trkpt lat="44.68143" lon="6.86858">
        <ele>2483.08</ele>
        <time>2020-02-21T09:24:53.010Z</time>
      </trkpt>
      <trkpt lat="44.68134" lon="6.86854">
        <ele>2487</ele>
        <time>2020-02-21T09:25:05.010Z</time>
      </trkpt>
      <trkpt lat="44.68126" lon="6.86849">
        <ele>2487.6188564474</ele>
        <time>2020-02-21T09:25:19.010Z</time>
      </trkpt>
      <trkpt lat="44.68125" lon="6.86863">
        <ele>2488.04</ele>
        <time>2020-02-21T09:25:48.010Z</time>
      </trkpt>
      <trkpt lat="44.68131" lon="6.86874">
        <ele>2490.44</ele>
        <time>2020-02-21T09:26:00.010Z</time>
      </trkpt>
      <trkpt lat="44.68136" lon="6.86885">
        <ele>2492.9710138834</ele>
        <time>2020-02-21T09:26:13.010Z</time>
      </trkpt>
      <trkpt lat="44.68143" lon="6.86895">
        <ele>2495.24</ele>
        <time>2020-02-21T09:26:24.010Z</time>
      </trkpt>
      <trkpt lat="44.68134" lon="6.86898">
        <ele>2500.0321285141</ele>
        <time>2020-02-21T09:26:53.010Z</time>
      </trkpt>
      <trkpt lat="44.68125" lon="6.86902">
        <ele>2502.44</ele>
        <time>2020-02-21T09:27:05.010Z</time>
      </trkpt>
      <trkpt lat="44.68115" lon="6.86901">
        <ele>2504</ele>
        <time>2020-02-21T09:27:17.010Z</time>
      </trkpt>
      <trkpt lat="44.68113" lon="6.86913">
        <ele>2511.02</ele>
        <time>2020-02-21T09:28:03.010Z</time>
      </trkpt>
      <trkpt lat="44.68118" lon="6.86924">
        <ele>2512.04</ele>
        <time>2020-02-21T09:28:33.010Z</time>
      </trkpt>
      <trkpt lat="44.68126" lon="6.86931">
        <ele>2514.52</ele>
        <time>2020-02-21T09:28:48.010Z</time>
      </trkpt>
      <trkpt lat="44.68117" lon="6.86932">
        <ele>2516</ele>
        <time>2020-02-21T09:29:06.010Z</time>
      </trkpt>
      <trkpt lat="44.68107" lon="6.8693">
        <ele>2517.0067766913</ele>
        <time>2020-02-21T09:29:18.010Z</time>
      </trkpt>
      <trkpt lat="44.68113" lon="6.86941">
        <ele>2519</ele>
        <time>2020-02-21T09:29:48.010Z</time>
      </trkpt>
      <trkpt lat="44.68109" lon="6.86953">
        <ele>2528.28</ele>
        <time>2020-02-21T09:30:36.010Z</time>
      </trkpt>
      <trkpt lat="44.68105" lon="6.86964">
        <ele>2533.24</ele>
        <time>2020-02-21T09:30:56.010Z</time>
      </trkpt>
      <trkpt lat="44.68097" lon="6.86969">
        <ele>2537</ele>
        <time>2020-02-21T09:31:15.010Z</time>
      </trkpt>
      <trkpt lat="44.68101" lon="6.86957">
        <ele>2531.2802801905</ele>
        <time>2020-02-21T09:33:00.010Z</time>
      </trkpt>
      <trkpt lat="44.68095" lon="6.86947">
        <ele>2530.48</ele>
        <time>2020-02-21T09:33:38.010Z</time>
      </trkpt>
      <trkpt lat="44.68099" lon="6.86959">
        <ele>2529.68</ele>
        <time>2020-02-21T09:35:16.010Z</time>
      </trkpt>
      <trkpt lat="44.68107" lon="6.86952">
        <ele>2528.9638554217</ele>
        <time>2020-02-21T09:37:18.010Z</time>
      </trkpt>
      <trkpt lat="44.68097" lon="6.86949">
        <ele>2532</ele>
        <time>2020-02-21T09:38:48.010Z</time>
      </trkpt>
      <trkpt lat="44.68094" lon="6.8696">
        <ele>2532.18</ele>
        <time>2020-02-21T09:41:41.010Z</time>
      </trkpt>
      <trkpt lat="44.68088" lon="6.86971">
        <ele>2531.4975846964</ele>
        <time>2020-02-21T09:41:58.010Z</time>
      </trkpt>
      <trkpt lat="44.68093" lon="6.86961">
        <ele>2532.08</ele>
        <time>2020-02-21T09:43:02.010Z</time>
      </trkpt>
      <trkpt lat="44.68084" lon="6.86956">
        <ele>2535.9198396279</ele>
        <time>2020-02-21T09:43:42.010Z</time>
      </trkpt>
      <trkpt lat="44.68076" lon="6.86953">
        <ele>2538.9197592521</ele>
        <time>2020-02-21T09:44:02.010Z</time>
      </trkpt>
      <trkpt lat="44.68069" lon="6.86944">
        <ele>2542.42</ele>
        <time>2020-02-21T09:44:27.010Z</time>
      </trkpt>
      <trkpt lat="44.6806" lon="6.86939">
        <ele>2543.4195805537</ele>
        <time>2020-02-21T09:44:37.010Z</time>
      </trkpt>
      <trkpt lat="44.68057" lon="6.86927">
        <ele>2550.81699968</ele>
        <time>2020-02-21T09:46:51.010Z</time>
      </trkpt>
      <trkpt lat="44.68049" lon="6.86934">
        <ele>2557</ele>
        <time>2020-02-21T09:47:14.010Z</time>
      </trkpt>
      <trkpt lat="44.68041" lon="6.86941">
        <ele>2557.72</ele>
        <time>2020-02-21T09:47:30.010Z</time>
      </trkpt>
      <trkpt lat="44.68032" lon="6.86941">
        <ele>2562.52</ele>
        <time>2020-02-21T09:48:08.010Z</time>
      </trkpt>
      <trkpt lat="44.68024" lon="6.86934">
        <ele>2565.8345398686</ele>
        <time>2020-02-21T09:48:32.010Z</time>
      </trkpt>
      <trkpt lat="44.68015" lon="6.8694">
        <ele>2567.0721417697</ele>
        <time>2020-02-21T09:48:53.010Z</time>
      </trkpt>
      <trkpt lat="44.6801" lon="6.86929">
        <ele>2571</ele>
        <time>2020-02-21T09:49:11.010Z</time>
      </trkpt>
      <trkpt lat="44.68005" lon="6.86917">
        <ele>2573</ele>
        <time>2020-02-21T09:49:29.010Z</time>
      </trkpt>
      <trkpt lat="44.68001" lon="6.86906">
        <ele>2576.5553335018</ele>
        <time>2020-02-21T09:49:48.010Z</time>
      </trkpt>
      <trkpt lat="44.67996" lon="6.86897">
        <ele>2580.44</ele>
        <time>2020-02-21T09:50:15.010Z</time>
      </trkpt>
      <trkpt lat="44.67989" lon="6.86887">
        <ele>2584.46</ele>
        <time>2020-02-21T09:50:31.010Z</time>
      </trkpt>
      <trkpt lat="44.67984" lon="6.86875">
        <ele>2586</ele>
        <time>2020-02-21T09:50:45.010Z</time>
      </trkpt>
      <trkpt lat="44.67979" lon="6.86863">
        <ele>2587.219560738</ele>
        <time>2020-02-21T09:51:05.010Z</time>
      </trkpt>
      <trkpt lat="44.67974" lon="6.86853">
        <ele>2589.03599872</ele>
        <time>2020-02-21T09:51:18.010Z</time>
      </trkpt>
      <trkpt lat="44.67967" lon="6.86843">
        <ele>2589</ele>
        <time>2020-02-21T09:51:34.010Z</time>
      </trkpt>
      <trkpt lat="44.67962" lon="6.86833">
        <ele>2591.4408481912</ele>
        <time>2020-02-21T09:51:54.010Z</time>
      </trkpt>
      <trkpt lat="44.67958" lon="6.86821">
        <ele>2594.4353054155</ele>
        <time>2020-02-21T09:52:15.010Z</time>
      </trkpt>
      <trkpt lat="44.67951" lon="6.86813">
        <ele>2596.62</ele>
        <time>2020-02-21T09:52:29.010Z</time>
      </trkpt>
      <trkpt lat="44.67945" lon="6.86804">
        <ele>2598.4353054155</ele>
        <time>2020-02-21T09:52:45.010Z</time>
      </trkpt>
      <trkpt lat="44.6794" lon="6.86793">
        <ele>2602.32</ele>
        <time>2020-02-21T09:53:16.010Z</time>
      </trkpt>
      <trkpt lat="44.67937" lon="6.8678">
        <ele>2602.219560738</ele>
        <time>2020-02-21T09:53:35.010Z</time>
      </trkpt>
      <trkpt lat="44.6793" lon="6.86773">
        <ele>2605.82</ele>
        <time>2020-02-21T09:54:11.010Z</time>
      </trkpt>
      <trkpt lat="44.67923" lon="6.86765">
        <ele>2608.22</ele>
        <time>2020-02-21T09:54:25.010Z</time>
      </trkpt>
      <trkpt lat="44.67917" lon="6.86755">
        <ele>2610.7760617761</ele>
        <time>2020-02-21T09:54:42.010Z</time>
      </trkpt>
      <trkpt lat="44.67912" lon="6.86744">
        <ele>2615.3547077225</ele>
        <time>2020-02-21T09:55:14.010Z</time>
      </trkpt>
      <trkpt lat="44.67911" lon="6.8673">
        <ele>2618.8374872702</ele>
        <time>2020-02-21T09:55:47.010Z</time>
      </trkpt>
      <trkpt lat="44.67909" lon="6.86718">
        <ele>2623</ele>
        <time>2020-02-21T09:56:14.010Z</time>
      </trkpt>
      <trkpt lat="44.67902" lon="6.86708">
        <ele>2625.72</ele>
        <time>2020-02-21T09:56:40.010Z</time>
      </trkpt>
      <trkpt lat="44.67893" lon="6.86703">
        <ele>2627.04</ele>
        <time>2020-02-21T09:57:33.010Z</time>
      </trkpt>
      <trkpt lat="44.67886" lon="6.86695">
        <ele>2630</ele>
        <time>2020-02-21T09:58:00.010Z</time>
      </trkpt>
      <trkpt lat="44.67878" lon="6.8669">
        <ele>2635.6529581233</ele>
        <time>2020-02-21T09:58:35.010Z</time>
      </trkpt>
      <trkpt lat="44.67868" lon="6.8669">
        <ele>2638</ele>
        <time>2020-02-21T09:59:02.010Z</time>
      </trkpt>
      <trkpt lat="44.6786" lon="6.86684">
        <ele>2640.62</ele>
        <time>2020-02-21T09:59:49.010Z</time>
      </trkpt>
      <trkpt lat="44.67852" lon="6.86678">
        <ele>2645.46</ele>
        <time>2020-02-21T10:00:11.010Z</time>
      </trkpt>
      <trkpt lat="44.67846" lon="6.86669">
        <ele>2645.5024153036</ele>
        <time>2020-02-21T10:00:58.010Z</time>
      </trkpt>
      <trkpt lat="44.6785" lon="6.86657">
        <ele>2652</ele>
        <time>2020-02-21T10:02:07.010Z</time>
      </trkpt>
      <trkpt lat="44.67852" lon="6.86644">
        <ele>2654</ele>
        <time>2020-02-21T10:02:24.010Z</time>
      </trkpt>
      <trkpt lat="44.67848" lon="6.86632">
        <ele>2657.16</ele>
        <time>2020-02-21T10:02:57.010Z</time>
      </trkpt>
      <trkpt lat="44.67833" lon="6.86624">
        <ele>2665</ele>
        <time>2020-02-21T10:04:07.010Z</time>
      </trkpt>
      <trkpt lat="44.67827" lon="6.86613">
        <ele>2665</ele>
        <time>2020-02-21T10:04:10.010Z</time>
      </trkpt>
      <trkpt lat="44.67832" lon="6.86601">
        <ele>2670</ele>
        <time>2020-02-21T10:07:06.010Z</time>
      </trkpt>
      <trkpt lat="44.67829" lon="6.86589">
        <ele>2669.206195301</ele>
        <time>2020-02-21T10:07:21.010Z</time>
      </trkpt>
      <trkpt lat="44.67823" lon="6.86579">
        <ele>2671.12</ele>
        <time>2020-02-21T10:07:34.010Z</time>
      </trkpt>
      <trkpt lat="44.67815" lon="6.86573">
        <ele>2674.8577146983</ele>
        <time>2020-02-21T10:07:59.010Z</time>
      </trkpt>
      <trkpt lat="44.67808" lon="6.86564">
        <ele>2677.017050838</ele>
        <time>2020-02-21T10:08:13.010Z</time>
      </trkpt>
      <trkpt lat="44.67806" lon="6.86551">
        <ele>2679.4182545776</ele>
        <time>2020-02-21T10:08:37.010Z</time>
      </trkpt>
      <trkpt lat="44.67804" lon="6.86539">
        <ele>2683.0371110249</ele>
        <time>2020-02-21T10:08:58.010Z</time>
      </trkpt>
      <trkpt lat="44.67801" lon="6.86526">
        <ele>2684</ele>
        <time>2020-02-21T10:09:32.010Z</time>
      </trkpt>
      <trkpt lat="44.67794" lon="6.86517">
        <ele>2685.24</ele>
        <time>2020-02-21T10:09:49.010Z</time>
      </trkpt>
      <trkpt lat="44.67788" lon="6.86508">
        <ele>2687</ele>
        <time>2020-02-21T10:10:07.010Z</time>
      </trkpt>
      <trkpt lat="44.6778" lon="6.86499">
        <ele>2690.2140643759</ele>
        <time>2020-02-21T10:10:39.010Z</time>
      </trkpt>
      <trkpt lat="44.67772" lon="6.86491">
        <ele>2693.32</ele>
        <time>2020-02-21T10:10:56.010Z</time>
      </trkpt>
      <trkpt lat="44.67763" lon="6.86488">
        <ele>2695.4342629482</ele>
        <time>2020-02-21T10:11:10.010Z</time>
      </trkpt>
      <trkpt lat="44.67755" lon="6.86485">
        <ele>2698.64</ele>
        <time>2020-02-21T10:11:31.010Z</time>
      </trkpt>
      <trkpt lat="44.67747" lon="6.86477">
        <ele>2700.4182545776</ele>
        <time>2020-02-21T10:11:47.010Z</time>
      </trkpt>
      <trkpt lat="44.67743" lon="6.86465">
        <ele>2702.24</ele>
        <time>2020-02-21T10:12:14.010Z</time>
      </trkpt>
      <trkpt lat="44.67737" lon="6.86456">
        <ele>2705.3520553186</ele>
        <time>2020-02-21T10:12:44.010Z</time>
      </trkpt>
      <trkpt lat="44.67731" lon="6.86446">
        <ele>2708.72</ele>
        <time>2020-02-21T10:13:00.010Z</time>
      </trkpt>
      <trkpt lat="44.67725" lon="6.86435">
        <ele>2711</ele>
        <time>2020-02-21T10:13:17.010Z</time>
      </trkpt>
      <trkpt lat="44.67719" lon="6.86426">
        <ele>2711.6956519588</ele>
        <time>2020-02-21T10:13:40.010Z</time>
      </trkpt>
      <trkpt lat="44.67713" lon="6.86416">
        <ele>2712</ele>
        <time>2020-02-21T10:14:14.010Z</time>
      </trkpt>
      <trkpt lat="44.67708" lon="6.86406">
        <ele>2712.4182545776</ele>
        <time>2020-02-21T10:14:27.010Z</time>
      </trkpt>
      <trkpt lat="44.67702" lon="6.86396">
        <ele>2713.92</ele>
        <time>2020-02-21T10:14:42.010Z</time>
      </trkpt>
      <trkpt lat="44.67694" lon="6.86388">
        <ele>2714</ele>
        <time>2020-02-21T10:15:03.010Z</time>
      </trkpt>
      <trkpt lat="44.67703" lon="6.86391">
        <ele>2714</ele>
        <time>2020-02-21T10:15:06.010Z</time>
      </trkpt>
      <trkpt lat="44.67692" lon="6.86392">
        <ele>2714</ele>
        <time>2020-02-21T10:15:49.010Z</time>
      </trkpt>
      <trkpt lat="44.67683" lon="6.86389">
        <ele>2714</ele>
        <time>2020-02-21T10:15:52.010Z</time>
      </trkpt>
      <trkpt lat="44.67671" lon="6.86387">
        <ele>2713.5775770722</ele>
        <time>2020-02-21T10:15:57.040Z</time>
      </trkpt>
      <trkpt lat="44.67663" lon="6.8638">
        <ele>2713.439121476</ele>
        <time>2020-02-21T10:16:05.010Z</time>
      </trkpt>
      <trkpt lat="44.67652" lon="6.86377">
        <ele>2714.98</ele>
        <time>2020-02-21T10:16:23.010Z</time>
      </trkpt>
      <trkpt lat="44.67661" lon="6.86382">
        <ele>2714.83400064</ele>
        <time>2020-02-21T10:16:41.150Z</time>
      </trkpt>
      <trkpt lat="44.67652" lon="6.86379">
        <ele>2715</ele>
        <time>2020-02-21T10:16:49.010Z</time>
      </trkpt>
      <trkpt lat="44.67643" lon="6.86373">
        <ele>2715.5031052609</ele>
        <time>2020-02-21T10:16:58.010Z</time>
      </trkpt>
      <trkpt lat="44.67639" lon="6.86361">
        <ele>2718.64</ele>
        <time>2020-02-21T10:17:16.010Z</time>
      </trkpt>
      <trkpt lat="44.67635" lon="6.8635">
        <ele>2722.04</ele>
        <time>2020-02-21T10:17:33.010Z</time>
      </trkpt>
      <trkpt lat="44.67636" lon="6.86337">
        <ele>2725.64</ele>
        <time>2020-02-21T10:17:51.010Z</time>
      </trkpt>
      <trkpt lat="44.67628" lon="6.8633">
        <ele>2728.04</ele>
        <time>2020-02-21T10:18:08.010Z</time>
      </trkpt>
      <trkpt lat="44.67627" lon="6.86316">
        <ele>2730.8577146983</ele>
        <time>2020-02-21T10:18:29.010Z</time>
      </trkpt>
      <trkpt lat="44.67626" lon="6.86304">
        <ele>2733</ele>
        <time>2020-02-21T10:18:44.010Z</time>
      </trkpt>
      <trkpt lat="44.67617" lon="6.86308">
        <ele>2733.72</ele>
        <time>2020-02-21T10:19:00.010Z</time>
      </trkpt>
      <trkpt lat="44.67608" lon="6.86308">
        <ele>2735.24</ele>
        <time>2020-02-21T10:19:09.010Z</time>
      </trkpt>
      <trkpt lat="44.67601" lon="6.86297">
        <ele>2736.92</ele>
        <time>2020-02-21T10:19:22.010Z</time>
      </trkpt>
      <trkpt lat="44.676" lon="6.86285">
        <ele>2738.6383621621</ele>
        <time>2020-02-21T10:19:41.010Z</time>
      </trkpt>
      <trkpt lat="44.67597" lon="6.8627">
        <ele>2742.8004140474</ele>
        <time>2020-02-21T10:20:07.010Z</time>
      </trkpt>
      <trkpt lat="44.67587" lon="6.86274">
        <ele>2744</ele>
        <time>2020-02-21T10:20:15.010Z</time>
      </trkpt>
      <trkpt lat="44.67579" lon="6.86267">
        <ele>2744.7954297442</ele>
        <time>2020-02-21T10:20:27.010Z</time>
      </trkpt>
      <trkpt lat="44.67572" lon="6.86259">
        <ele>2746.8175470971</ele>
        <time>2020-02-21T10:20:41.010Z</time>
      </trkpt>
      <trkpt lat="44.67579" lon="6.86249">
        <ele>2747.22</ele>
        <time>2020-02-21T10:21:05.010Z</time>
      </trkpt>
      <trkpt lat="44.67569" lon="6.86242">
        <ele>2750.219123506</ele>
        <time>2020-02-21T10:21:35.010Z</time>
      </trkpt>
      <trkpt lat="44.67562" lon="6.86233">
        <ele>2756.5194806856</ele>
        <time>2020-02-21T10:22:28.010Z</time>
      </trkpt>
      <trkpt lat="44.67553" lon="6.86232">
        <ele>2757</ele>
        <time>2020-02-21T10:22:37.010Z</time>
      </trkpt>
      <trkpt lat="44.67543" lon="6.86224">
        <ele>2759.5031052609</ele>
        <time>2020-02-21T10:23:18.010Z</time>
      </trkpt>
      <trkpt lat="44.67532" lon="6.86223">
        <ele>2762.32</ele>
        <time>2020-02-21T10:23:36.010Z</time>
      </trkpt>
      <trkpt lat="44.67526" lon="6.86213">
        <ele>2766.44</ele>
        <time>2020-02-21T10:24:05.010Z</time>
      </trkpt>
      <trkpt lat="44.67535" lon="6.86204">
        <ele>2769.64</ele>
        <time>2020-02-21T10:24:26.010Z</time>
      </trkpt>
      <trkpt lat="44.67526" lon="6.862">
        <ele>2771.64</ele>
        <time>2020-02-21T10:24:46.010Z</time>
      </trkpt>
      <trkpt lat="44.67515" lon="6.86198">
        <ele>2773.32</ele>
        <time>2020-02-21T10:24:56.010Z</time>
      </trkpt>
      <trkpt lat="44.67505" lon="6.86197">
        <ele>2774.42</ele>
        <time>2020-02-21T10:25:07.010Z</time>
      </trkpt>
      <trkpt lat="44.67495" lon="6.862">
        <ele>2774.82300032</ele>
        <time>2020-02-21T10:25:11.040Z</time>
      </trkpt>
      <trkpt lat="44.67506" lon="6.86195">
        <ele>2775.12</ele>
        <time>2020-02-21T10:25:14.010Z</time>
      </trkpt>
      <trkpt lat="44.67518" lon="6.86194">
        <ele>2775.92</ele>
        <time>2020-02-21T10:25:22.010Z</time>
      </trkpt>
      <trkpt lat="44.67524" lon="6.86183">
        <ele>2777.82</ele>
        <time>2020-02-21T10:25:41.010Z</time>
      </trkpt>
      <trkpt lat="44.67514" lon="6.86185">
        <ele>2780.92</ele>
        <time>2020-02-21T10:26:12.010Z</time>
      </trkpt>
      <trkpt lat="44.67503" lon="6.8618">
        <ele>2781.5574874412</ele>
        <time>2020-02-21T10:26:18.580Z</time>
      </trkpt>
      <trkpt lat="44.67493" lon="6.86178">
        <ele>2784.72</ele>
        <time>2020-02-21T10:26:40.010Z</time>
      </trkpt>
      <trkpt lat="44.67487" lon="6.86187">
        <ele>2787</ele>
        <time>2020-02-21T10:27:06.010Z</time>
      </trkpt>
      <trkpt lat="44.67491" lon="6.86175">
        <ele>2793.12</ele>
        <time>2020-02-21T10:27:44.010Z</time>
      </trkpt>
      <trkpt lat="44.67492" lon="6.86162">
        <ele>2798</ele>
        <time>2020-02-21T10:28:42.010Z</time>
      </trkpt>
      <trkpt lat="44.67486" lon="6.86172">
        <ele>2798.6387221469</ele>
        <time>2020-02-21T10:29:06.010Z</time>
      </trkpt>
      <trkpt lat="44.67478" lon="6.86167">
        <ele>2802.3091786484</ele>
        <time>2020-02-21T10:29:26.010Z</time>
      </trkpt>
      <trkpt lat="44.67484" lon="6.86156">
        <ele>2803.24</ele>
        <time>2020-02-21T10:29:44.010Z</time>
      </trkpt>
      <trkpt lat="44.67479" lon="6.86144">
        <ele>2805.66</ele>
        <time>2020-02-21T10:29:55.010Z</time>
      </trkpt>
      <trkpt lat="44.67481" lon="6.8613">
        <ele>2806</ele>
        <time>2020-02-21T10:30:15.010Z</time>
      </trkpt>
      <trkpt lat="44.67471" lon="6.86129">
        <ele>2806.12</ele>
        <time>2020-02-21T10:30:24.010Z</time>
      </trkpt>
      <trkpt lat="44.67464" lon="6.86137">
        <ele>2807.4386838082</ele>
        <time>2020-02-21T10:30:35.010Z</time>
      </trkpt>
      <trkpt lat="44.67454" lon="6.86143">
        <ele>2809.2176527078</ele>
        <time>2020-02-21T10:30:45.010Z</time>
      </trkpt>
      <trkpt lat="44.67445" lon="6.86148">
        <ele>2809.7191573823</ele>
        <time>2020-02-21T10:30:50.010Z</time>
      </trkpt>
      <trkpt lat="44.67436" lon="6.86154">
        <ele>2810.42</ele>
        <time>2020-02-21T10:30:57.010Z</time>
      </trkpt>
      <trkpt lat="44.67428" lon="6.86149">
        <ele>2810.82</ele>
        <time>2020-02-21T10:31:01.010Z</time>
      </trkpt>
      <trkpt lat="44.67417" lon="6.86148">
        <ele>2812.04</ele>
        <time>2020-02-21T10:31:08.010Z</time>
      </trkpt>
      <trkpt lat="44.67408" lon="6.86149">
        <ele>2813.62</ele>
        <time>2020-02-21T10:31:19.010Z</time>
      </trkpt>
      <trkpt lat="44.67399" lon="6.86156">
        <ele>2814.22</ele>
        <time>2020-02-21T10:31:25.010Z</time>
      </trkpt>
      <trkpt lat="44.6739" lon="6.8616">
        <ele>2814.82</ele>
        <time>2020-02-21T10:31:31.010Z</time>
      </trkpt>
      <trkpt lat="44.67399" lon="6.86165">
        <ele>2819</ele>
        <time>2020-02-21T10:31:58.010Z</time>
      </trkpt>
      <trkpt lat="44.67402" lon="6.86153">
        <ele>2820.219560738</ele>
        <time>2020-02-21T10:32:15.010Z</time>
      </trkpt>
      <trkpt lat="44.6741" lon="6.86145">
        <ele>2821.6372736752</ele>
        <time>2020-02-21T10:32:26.010Z</time>
      </trkpt>
      <trkpt lat="44.6742" lon="6.86152">
        <ele>2825</ele>
        <time>2020-02-21T10:33:06.010Z</time>
      </trkpt>
      <trkpt lat="44.67429" lon="6.86156">
        <ele>2825.04</ele>
        <time>2020-02-21T10:33:13.010Z</time>
      </trkpt>
      <trkpt lat="44.6744" lon="6.86156">
        <ele>2825.84</ele>
        <time>2020-02-21T10:33:17.010Z</time>
      </trkpt>
      <trkpt lat="44.67578" lon="6.86131">
        <ele>2829.08</ele>
        <time>2020-02-21T10:33:28.010Z</time>
      </trkpt>
      <trkpt lat="44.67598" lon="6.86101">
        <ele>2835.42</ele>
        <time>2020-02-21T10:35:07.010Z</time>
      </trkpt>
      <trkpt lat="44.67598" lon="6.86086">
        <ele>2835.52</ele>
        <time>2020-02-21T10:35:08.010Z</time>
      </trkpt>
      <trkpt lat="44.67591" lon="6.86094">
        <ele>2836.62</ele>
        <time>2020-02-21T10:35:19.010Z</time>
      </trkpt>
      <trkpt lat="44.67584" lon="6.86102">
        <ele>2838.52</ele>
        <time>2020-02-21T10:35:38.010Z</time>
      </trkpt>
      <trkpt lat="44.67578" lon="6.86112">
        <ele>2841.7194386978</ele>
        <time>2020-02-21T10:36:30.010Z</time>
      </trkpt>
      <trkpt lat="44.67571" lon="6.86121">
        <ele>2843.1182359075</ele>
        <time>2020-02-21T10:37:24.010Z</time>
      </trkpt>
      <trkpt lat="44.67567" lon="6.86133">
        <ele>2848</ele>
        <time>2020-02-21T10:38:24.010Z</time>
      </trkpt>
      <trkpt lat="44.6756" lon="6.8614">
        <ele>2850.92</ele>
        <time>2020-02-21T10:39:22.010Z</time>
      </trkpt>
      <trkpt lat="44.67551" lon="6.86136">
        <ele>2856.3196804219</ele>
        <time>2020-02-21T10:40:46.010Z</time>
      </trkpt>
      <trkpt lat="44.67542" lon="6.86134">
        <ele>2862.5031052609</ele>
        <time>2020-02-21T10:42:18.010Z</time>
      </trkpt>
      <trkpt lat="44.67533" lon="6.86132">
        <ele>2867</ele>
        <time>2020-02-21T10:45:10.010Z</time>
      </trkpt>
      <trkpt lat="44.6754" lon="6.86125">
        <ele>2868</ele>
        <time>2020-02-21T10:46:25.010Z</time>
      </trkpt>
      <trkpt lat="44.67532" lon="6.8613">
        <ele>2868.600206281</ele>
        <time>2020-02-21T10:48:37.010Z</time>
      </trkpt>
      <trkpt lat="44.6754" lon="6.86126">
        <ele>2872</ele>
        <time>2020-02-21T10:54:05.010Z</time>
      </trkpt>
      <trkpt lat="44.67531" lon="6.86121">
        <ele>2872</ele>
        <time>2020-02-21T10:58:42.010Z</time>
      </trkpt>
      <trkpt lat="44.6754" lon="6.86124">
        <ele>2875.44</ele>
        <time>2020-02-21T10:59:30.010Z</time>
      </trkpt>
      <trkpt lat="44.67543" lon="6.86112">
        <ele>2874.04</ele>
        <time>2020-02-21T10:59:56.010Z</time>
      </trkpt>
      <trkpt lat="44.67544" lon="6.86099">
        <ele>2870.1455639017</ele>
        <time>2020-02-21T11:00:09.010Z</time>
      </trkpt>
      <trkpt lat="44.67539" lon="6.86088">
        <ele>2868</ele>
        <time>2020-02-21T11:02:41.010Z</time>
      </trkpt>
      <trkpt lat="44.6753" lon="6.86086">
        <ele>2874.8839459132</ele>
        <time>2020-02-21T11:04:14.010Z</time>
      </trkpt>
      <trkpt lat="44.6752" lon="6.86082">
        <ele>2868.4809622323</ele>
        <time>2020-02-21T11:05:02.010Z</time>
      </trkpt>
      <trkpt lat="44.6752" lon="6.86066">
        <ele>2866.7272745872</ele>
        <time>2020-02-21T11:05:51.010Z</time>
      </trkpt>
      <trkpt lat="44.67514" lon="6.86053">
        <ele>2862.5050180393</ele>
        <time>2020-02-21T11:05:55.010Z</time>
      </trkpt>
      <trkpt lat="44.67515" lon="6.86025">
        <ele>2854.4408794811</ele>
        <time>2020-02-21T11:06:00.040Z</time>
      </trkpt>
      <trkpt lat="44.67516" lon="6.86011">
        <ele>2851.2825659527</ele>
        <time>2020-02-21T11:06:02.010Z</time>
      </trkpt>
      <trkpt lat="44.67516" lon="6.85994">
        <ele>2849.34</ele>
        <time>2020-02-21T11:06:05.010Z</time>
      </trkpt>
      <trkpt lat="44.67515" lon="6.85977">
        <ele>2848.44</ele>
        <time>2020-02-21T11:06:08.010Z</time>
      </trkpt>
      <trkpt lat="44.67517" lon="6.85963">
        <ele>2847.24</ele>
        <time>2020-02-21T11:06:12.010Z</time>
      </trkpt>
      <trkpt lat="44.67517" lon="6.85948">
        <ele>2845.70799872</ele>
        <time>2020-02-21T11:06:16.040Z</time>
      </trkpt>
      <trkpt lat="44.67523" lon="6.85937">
        <ele>2844.52</ele>
        <time>2020-02-21T11:06:19.010Z</time>
      </trkpt>
      <trkpt lat="44.67528" lon="6.85923">
        <ele>2843.32</ele>
        <time>2020-02-21T11:06:22.010Z</time>
      </trkpt>
      <trkpt lat="44.67531" lon="6.85906">
        <ele>2842.56</ele>
        <time>2020-02-21T11:06:25.010Z</time>
      </trkpt>
      <trkpt lat="44.67536" lon="6.85883">
        <ele>2841.736</ele>
        <time>2020-02-21T11:06:29.130Z</time>
      </trkpt>
      <trkpt lat="44.67533" lon="6.8587">
        <ele>2841.16</ele>
        <time>2020-02-21T11:06:32.010Z</time>
      </trkpt>
      <trkpt lat="44.67526" lon="6.8586">
        <ele>2840.16</ele>
        <time>2020-02-21T11:06:37.010Z</time>
      </trkpt>
      <trkpt lat="44.67521" lon="6.85848">
        <ele>2839.04</ele>
        <time>2020-02-21T11:06:43.010Z</time>
      </trkpt>
      <trkpt lat="44.67517" lon="6.85838">
        <ele>2840.04</ele>
        <time>2020-02-21T11:06:48.010Z</time>
      </trkpt>
      <trkpt lat="44.67513" lon="6.85826">
        <ele>2841</ele>
        <time>2020-02-21T11:07:01.010Z</time>
      </trkpt>
      <trkpt lat="44.6751" lon="6.85812">
        <ele>2839.1618375742</ele>
        <time>2020-02-21T11:07:12.010Z</time>
      </trkpt>
      <trkpt lat="44.67516" lon="6.85796">
        <ele>2839.72200064</ele>
        <time>2020-02-21T11:07:20.040Z</time>
      </trkpt>
      <trkpt lat="44.67522" lon="6.85783">
        <ele>2839.7877903876</ele>
        <time>2020-02-21T11:07:25.010Z</time>
      </trkpt>
      <trkpt lat="44.67525" lon="6.8577">
        <ele>2839.4001934884</ele>
        <time>2020-02-21T11:07:29.010Z</time>
      </trkpt>
      <trkpt lat="44.67524" lon="6.85757">
        <ele>2838.9100307226</ele>
        <time>2020-02-21T11:07:34.010Z</time>
      </trkpt>
      <trkpt lat="44.67526" lon="6.85744">
        <ele>2838.4963803942</ele>
        <time>2020-02-21T11:07:38.010Z</time>
      </trkpt>
      <trkpt lat="44.67527" lon="6.85728">
        <ele>2838.0827300657</ele>
        <time>2020-02-21T11:07:42.010Z</time>
      </trkpt>
      <trkpt lat="44.6753" lon="6.85714">
        <ele>2838.64</ele>
        <time>2020-02-21T11:07:46.010Z</time>
      </trkpt>
      <trkpt lat="44.67535" lon="6.85701">
        <ele>2839.24</ele>
        <time>2020-02-21T11:07:49.010Z</time>
      </trkpt>
      <trkpt lat="44.6754" lon="6.85686">
        <ele>2839.84</ele>
        <time>2020-02-21T11:07:52.010Z</time>
      </trkpt>
      <trkpt lat="44.67542" lon="6.8567">
        <ele>2837.8</ele>
        <time>2020-02-21T11:07:55.010Z</time>
      </trkpt>
      <trkpt lat="44.6754" lon="6.85654">
        <ele>2834.8</ele>
        <time>2020-02-21T11:07:58.010Z</time>
      </trkpt>
      <trkpt lat="44.6754" lon="6.85638">
        <ele>2831.8</ele>
        <time>2020-02-21T11:08:01.010Z</time>
      </trkpt>
      <trkpt lat="44.6754" lon="6.8562">
        <ele>2829.64</ele>
        <time>2020-02-21T11:08:04.010Z</time>
      </trkpt>
      <trkpt lat="44.67539" lon="6.85602">
        <ele>2828.74</ele>
        <time>2020-02-21T11:08:07.010Z</time>
      </trkpt>
      <trkpt lat="44.67538" lon="6.85586">
        <ele>2827.84</ele>
        <time>2020-02-21T11:08:10.010Z</time>
      </trkpt>
      <trkpt lat="44.67538" lon="6.85572">
        <ele>2826.98</ele>
        <time>2020-02-21T11:08:13.010Z</time>
      </trkpt>
      <trkpt lat="44.6754" lon="6.85557">
        <ele>2826.58</ele>
        <time>2020-02-21T11:08:17.010Z</time>
      </trkpt>
      <trkpt lat="44.67542" lon="6.85545">
        <ele>2824.68</ele>
        <time>2020-02-21T11:08:25.010Z</time>
      </trkpt>
      <trkpt lat="44.67549" lon="6.85554">
        <ele>2819.36</ele>
        <time>2020-02-21T11:10:01.010Z</time>
      </trkpt>
      <trkpt lat="44.67557" lon="6.85544">
        <ele>2813.2905845551</ele>
        <time>2020-02-21T11:10:24.010Z</time>
      </trkpt>
      <trkpt lat="44.67561" lon="6.85531">
        <ele>2805.8357494614</ele>
        <time>2020-02-21T11:10:36.010Z</time>
      </trkpt>
      <trkpt lat="44.67568" lon="6.85523">
        <ele>2797.7512979072</ele>
        <time>2020-02-21T11:10:46.010Z</time>
      </trkpt>
      <trkpt lat="44.67579" lon="6.85524">
        <ele>2793.191710903</ele>
        <time>2020-02-21T11:10:50.010Z</time>
      </trkpt>
      <trkpt lat="44.67589" lon="6.85523">
        <ele>2789.9000998682</ele>
        <time>2020-02-21T11:10:53.010Z</time>
      </trkpt>
      <trkpt lat="44.676" lon="6.85522">
        <ele>2788.4015978906</ele>
        <time>2020-02-21T11:10:56.010Z</time>
      </trkpt>
      <trkpt lat="44.6761" lon="6.85523">
        <ele>2786.9030959131</ele>
        <time>2020-02-21T11:10:59.010Z</time>
      </trkpt>
      <trkpt lat="44.6762" lon="6.85521">
        <ele>2782.4834823677</ele>
        <time>2020-02-21T11:11:07.010Z</time>
      </trkpt>
      <trkpt lat="44.67629" lon="6.8552">
        <ele>2779.4804803266</ele>
        <time>2020-02-21T11:11:12.010Z</time>
      </trkpt>
      <trkpt lat="44.67639" lon="6.85519">
        <ele>2777.4</ele>
        <time>2020-02-21T11:11:16.010Z</time>
      </trkpt>
      <trkpt lat="44.67647" lon="6.85513">
        <ele>2773.82</ele>
        <time>2020-02-21T11:11:23.010Z</time>
      </trkpt>
      <trkpt lat="44.67645" lon="6.85498">
        <ele>2769.32</ele>
        <time>2020-02-21T11:11:28.010Z</time>
      </trkpt>
      <trkpt lat="44.67646" lon="6.85485">
        <ele>2765.72</ele>
        <time>2020-02-21T11:11:32.010Z</time>
      </trkpt>
      <trkpt lat="44.67652" lon="6.85473">
        <ele>2762.48</ele>
        <time>2020-02-21T11:11:37.010Z</time>
      </trkpt>
      <trkpt lat="44.67663" lon="6.85465">
        <ele>2759.48</ele>
        <time>2020-02-21T11:11:42.010Z</time>
      </trkpt>
      <trkpt lat="44.67672" lon="6.85463">
        <ele>2755.88</ele>
        <time>2020-02-21T11:11:48.010Z</time>
      </trkpt>
      <trkpt lat="44.6767" lon="6.85446">
        <ele>2753.48</ele>
        <time>2020-02-21T11:11:52.010Z</time>
      </trkpt>
      <trkpt lat="44.67666" lon="6.85434">
        <ele>2752.4</ele>
        <time>2020-02-21T11:11:54.010Z</time>
      </trkpt>
      <trkpt lat="44.67664" lon="6.8542">
        <ele>2750.9</ele>
        <time>2020-02-21T11:11:57.010Z</time>
      </trkpt>
      <trkpt lat="44.67663" lon="6.85407">
        <ele>2749.4</ele>
        <time>2020-02-21T11:12:00.010Z</time>
      </trkpt>
      <trkpt lat="44.67665" lon="6.85391">
        <ele>2747.96</ele>
        <time>2020-02-21T11:12:03.010Z</time>
      </trkpt>
      <trkpt lat="44.67665" lon="6.85378">
        <ele>2747.16</ele>
        <time>2020-02-21T11:12:07.010Z</time>
      </trkpt>
      <trkpt lat="44.67673" lon="6.85386">
        <ele>2740.96</ele>
        <time>2020-02-21T11:12:20.010Z</time>
      </trkpt>
      <trkpt lat="44.67681" lon="6.85381">
        <ele>2731.54</ele>
        <time>2020-02-21T11:12:37.010Z</time>
      </trkpt>
      <trkpt lat="44.67695" lon="6.85384">
        <ele>2728.06899584</ele>
        <time>2020-02-21T11:12:39.680Z</time>
      </trkpt>
      <trkpt lat="44.67709" lon="6.85381">
        <ele>2725.04</ele>
        <time>2020-02-21T11:12:42.010Z</time>
      </trkpt>
      <trkpt lat="44.67719" lon="6.85381">
        <ele>2722.2</ele>
        <time>2020-02-21T11:12:44.010Z</time>
      </trkpt>
      <trkpt lat="44.67729" lon="6.85381">
        <ele>2719.2</ele>
        <time>2020-02-21T11:12:46.010Z</time>
      </trkpt>
      <trkpt lat="44.67738" lon="6.85379">
        <ele>2714.7</ele>
        <time>2020-02-21T11:12:49.010Z</time>
      </trkpt>
      <trkpt lat="44.67746" lon="6.85385">
        <ele>2711.7</ele>
        <time>2020-02-21T11:12:51.010Z</time>
      </trkpt>
      <trkpt lat="44.67755" lon="6.85395">
        <ele>2708.16</ele>
        <time>2020-02-21T11:12:54.010Z</time>
      </trkpt>
      <trkpt lat="44.67767" lon="6.85397">
        <ele>2706.76</ele>
        <time>2020-02-21T11:12:56.010Z</time>
      </trkpt>
      <trkpt lat="44.67782" lon="6.85397">
        <ele>2705.36</ele>
        <time>2020-02-21T11:12:58.010Z</time>
      </trkpt>
      <trkpt lat="44.67794" lon="6.85398">
        <ele>2703.96</ele>
        <time>2020-02-21T11:13:00.010Z</time>
      </trkpt>
      <trkpt lat="44.67806" lon="6.854">
        <ele>2702.56</ele>
        <time>2020-02-21T11:13:02.010Z</time>
      </trkpt>
      <trkpt lat="44.67806" lon="6.85387">
        <ele>2702</ele>
        <time>2020-02-21T11:13:09.010Z</time>
      </trkpt>
      <trkpt lat="44.67811" lon="6.85373">
        <ele>2699.72</ele>
        <time>2020-02-21T11:13:36.010Z</time>
      </trkpt>
      <trkpt lat="44.67817" lon="6.85363">
        <ele>2698.52</ele>
        <time>2020-02-21T11:13:39.010Z</time>
      </trkpt>
      <trkpt lat="44.67822" lon="6.8535">
        <ele>2697.32</ele>
        <time>2020-02-21T11:13:42.010Z</time>
      </trkpt>
      <trkpt lat="44.67823" lon="6.85335">
        <ele>2695.5106392197</ele>
        <time>2020-02-21T11:13:45.010Z</time>
      </trkpt>
      <trkpt lat="44.67826" lon="6.85322">
        <ele>2693.4796927012</ele>
        <time>2020-02-21T11:13:48.010Z</time>
      </trkpt>
      <trkpt lat="44.67829" lon="6.85305">
        <ele>2691.455513838</ele>
        <time>2020-02-21T11:13:51.000Z</time>
      </trkpt>
      <trkpt lat="44.67832" lon="6.85292">
        <ele>2690.0947818369</ele>
        <time>2020-02-21T11:13:53.010Z</time>
      </trkpt>
      <trkpt lat="44.67835" lon="6.85278">
        <ele>2686.8033158117</ele>
        <time>2020-02-21T11:13:57.010Z</time>
      </trkpt>
      <trkpt lat="44.67844" lon="6.85277">
        <ele>2680.02</ele>
        <time>2020-02-21T11:14:05.010Z</time>
      </trkpt>
      <trkpt lat="44.67852" lon="6.85285">
        <ele>2675.52</ele>
        <time>2020-02-21T11:14:10.010Z</time>
      </trkpt>
      <trkpt lat="44.67863" lon="6.85283">
        <ele>2667.3859684142</ele>
        <time>2020-02-21T11:14:16.010Z</time>
      </trkpt>
      <trkpt lat="44.67874" lon="6.85283">
        <ele>2660.368428932</ele>
        <time>2020-02-21T11:14:20.010Z</time>
      </trkpt>
      <trkpt lat="44.67885" lon="6.85283">
        <ele>2654.8069827068</ele>
        <time>2020-02-21T11:14:24.010Z</time>
      </trkpt>
      <trkpt lat="44.67884" lon="6.8527">
        <ele>2653</ele>
        <time>2020-02-21T11:14:59.010Z</time>
      </trkpt>
      <trkpt lat="44.67885" lon="6.85255">
        <ele>2647.815554994</ele>
        <time>2020-02-21T11:15:18.010Z</time>
      </trkpt>
      <trkpt lat="44.67897" lon="6.85252">
        <ele>2643.8275203741</ele>
        <time>2020-02-21T11:15:22.010Z</time>
      </trkpt>
      <trkpt lat="44.67907" lon="6.85247">
        <ele>2639.5175566757</ele>
        <time>2020-02-21T11:15:25.010Z</time>
      </trkpt>
      <trkpt lat="44.67918" lon="6.8524">
        <ele>2634.7031118004</ele>
        <time>2020-02-21T11:15:28.010Z</time>
      </trkpt>
      <trkpt lat="44.67932" lon="6.85235">
        <ele>2629.9047099393</ele>
        <time>2020-02-21T11:15:31.000Z</time>
      </trkpt>
      <trkpt lat="44.67942" lon="6.85235">
        <ele>2627</ele>
        <time>2020-02-21T11:15:33.010Z</time>
      </trkpt>
      <trkpt lat="44.67953" lon="6.85234">
        <ele>2627</ele>
        <time>2020-02-21T11:15:35.010Z</time>
      </trkpt>
      <trkpt lat="44.67962" lon="6.85234">
        <ele>2627</ele>
        <time>2020-02-21T11:15:37.010Z</time>
      </trkpt>
      <trkpt lat="44.67974" lon="6.85236">
        <ele>2627</ele>
        <time>2020-02-21T11:15:40.010Z</time>
      </trkpt>
      <trkpt lat="44.67983" lon="6.8523">
        <ele>2614.7048879905</ele>
        <time>2020-02-21T11:16:38.010Z</time>
      </trkpt>
      <trkpt lat="44.67994" lon="6.8523">
        <ele>2608.3240325985</ele>
        <time>2020-02-21T11:16:42.010Z</time>
      </trkpt>
      <trkpt lat="44.68002" lon="6.85237">
        <ele>2605.3269816897</ele>
        <time>2020-02-21T11:16:47.010Z</time>
      </trkpt>
      <trkpt lat="44.6801" lon="6.85245">
        <ele>2603.3209629917</ele>
        <time>2020-02-21T11:16:52.010Z</time>
      </trkpt>
      <trkpt lat="44.6802" lon="6.85241">
        <ele>2599.5957467879</ele>
        <time>2020-02-21T11:16:56.010Z</time>
      </trkpt>
      <trkpt lat="44.68031" lon="6.85243">
        <ele>2594.2766011441</ele>
        <time>2020-02-21T11:17:01.010Z</time>
      </trkpt>
      <trkpt lat="44.68041" lon="6.85241">
        <ele>2591.6149079022</ele>
        <time>2020-02-21T11:17:05.010Z</time>
      </trkpt>
      <trkpt lat="44.6805" lon="6.85217">
        <ele>2587.99299712</ele>
        <time>2020-02-21T11:17:15.040Z</time>
      </trkpt>
      <trkpt lat="44.68057" lon="6.85207">
        <ele>2587.09299712</ele>
        <time>2020-02-21T11:17:16.040Z</time>
      </trkpt>
      <trkpt lat="44.68061" lon="6.85194">
        <ele>2585.32</ele>
        <time>2020-02-21T11:17:18.010Z</time>
      </trkpt>
      <trkpt lat="44.68069" lon="6.85171">
        <ele>2581.72</ele>
        <time>2020-02-21T11:17:22.010Z</time>
      </trkpt>
      <trkpt lat="44.68081" lon="6.85176">
        <ele>2572.69661209</ele>
        <time>2020-02-21T11:17:28.010Z</time>
      </trkpt>
      <trkpt lat="44.6809" lon="6.8518">
        <ele>2567.9061959881</ele>
        <time>2020-02-21T11:17:31.010Z</time>
      </trkpt>
      <trkpt lat="44.681" lon="6.85184">
        <ele>2560.9669069626</ele>
        <time>2020-02-21T11:17:35.010Z</time>
      </trkpt>
      <trkpt lat="44.6811" lon="6.85188">
        <ele>2555.4167626355</ele>
        <time>2020-02-21T11:17:38.010Z</time>
      </trkpt>
      <trkpt lat="44.68121" lon="6.85191">
        <ele>2549.8666183084</ele>
        <time>2020-02-21T11:17:41.010Z</time>
      </trkpt>
      <trkpt lat="44.6813" lon="6.85194">
        <ele>2545.8125661587</ele>
        <time>2020-02-21T11:17:44.010Z</time>
      </trkpt>
      <trkpt lat="44.68123" lon="6.85186">
        <ele>2544</ele>
        <time>2020-02-21T11:18:03.010Z</time>
      </trkpt>
      <trkpt lat="44.68119" lon="6.85174">
        <ele>2542.98</ele>
        <time>2020-02-21T11:18:33.010Z</time>
      </trkpt>
      <trkpt lat="44.68094" lon="6.85168">
        <ele>2542</ele>
        <time>2020-02-21T11:18:46.010Z</time>
      </trkpt>
      <trkpt lat="44.68094" lon="6.85155">
        <ele>2541.78</ele>
        <time>2020-02-21T11:18:55.010Z</time>
      </trkpt>
      <trkpt lat="44.68098" lon="6.85138">
        <ele>2541.28</ele>
        <time>2020-02-21T11:19:00.010Z</time>
      </trkpt>
      <trkpt lat="44.68094" lon="6.85125">
        <ele>2541.18</ele>
        <time>2020-02-21T11:19:01.010Z</time>
      </trkpt>
      <trkpt lat="44.68096" lon="6.85113">
        <ele>2542.04</ele>
        <time>2020-02-21T11:19:08.010Z</time>
      </trkpt>
      <trkpt lat="44.68085" lon="6.85119">
        <ele>2540</ele>
        <time>2020-02-21T11:20:11.040Z</time>
      </trkpt>
      <trkpt lat="44.68075" lon="6.85118">
        <ele>2540</ele>
        <time>2020-02-21T11:20:13.010Z</time>
      </trkpt>
      <trkpt lat="44.68065" lon="6.85122">
        <ele>2539.7032055584</ele>
        <time>2020-02-21T11:20:16.010Z</time>
      </trkpt>
      <trkpt lat="44.68061" lon="6.85134">
        <ele>2539.1861426478</ele>
        <time>2020-02-21T11:20:21.010Z</time>
      </trkpt>
      <trkpt lat="44.68048" lon="6.85133">
        <ele>2538.07699968</ele>
        <time>2020-02-21T11:20:32.040Z</time>
      </trkpt>
      <trkpt lat="44.68053" lon="6.85123">
        <ele>2541</ele>
        <time>2020-02-21T11:22:27.010Z</time>
      </trkpt>
      <trkpt lat="44.68062" lon="6.85119">
        <ele>2545</ele>
        <time>2020-02-21T11:23:10.010Z</time>
      </trkpt>
      <trkpt lat="44.68053" lon="6.85113">
        <ele>2544.4966116543</ele>
        <time>2020-02-21T11:23:18.010Z</time>
      </trkpt>
      <trkpt lat="44.68044" lon="6.8511">
        <ele>2544</ele>
        <time>2020-02-21T11:23:30.010Z</time>
      </trkpt>
      <trkpt lat="44.68032" lon="6.85111">
        <ele>2544.32</ele>
        <time>2020-02-21T11:23:36.010Z</time>
      </trkpt>
      <trkpt lat="44.68039" lon="6.85102">
        <ele>2543.28</ele>
        <time>2020-02-21T11:24:00.010Z</time>
      </trkpt>
      <trkpt lat="44.68031" lon="6.85109">
        <ele>2543</ele>
        <time>2020-02-21T11:24:25.010Z</time>
      </trkpt>
      <trkpt lat="44.68039" lon="6.85104">
        <ele>2543.78</ele>
        <time>2020-02-21T11:25:45.010Z</time>
      </trkpt>
      <trkpt lat="44.68048" lon="6.85099">
        <ele>2544</ele>
        <time>2020-02-21T11:27:12.010Z</time>
      </trkpt>
      <trkpt lat="44.6804" lon="6.85108">
        <ele>2544.62</ele>
        <time>2020-02-21T11:27:29.010Z</time>
      </trkpt>
      <trkpt lat="44.68028" lon="6.8511">
        <ele>2545</ele>
        <time>2020-02-21T11:27:34.010Z</time>
      </trkpt>
      <trkpt lat="44.68019" lon="6.85112">
        <ele>2545</ele>
        <time>2020-02-21T11:27:38.010Z</time>
      </trkpt>
      <trkpt lat="44.68028" lon="6.85107">
        <ele>2544</ele>
        <time>2020-02-21T11:28:01.010Z</time>
      </trkpt>
      <trkpt lat="44.68019" lon="6.85112">
        <ele>2544.62</ele>
        <time>2020-02-21T11:28:29.010Z</time>
      </trkpt>
      <trkpt lat="44.68027" lon="6.85106">
        <ele>2543</ele>
        <time>2020-02-21T11:29:19.010Z</time>
      </trkpt>
      <trkpt lat="44.68019" lon="6.85112">
        <ele>2542</ele>
        <time>2020-02-21T11:29:39.010Z</time>
      </trkpt>
      <trkpt lat="44.6801" lon="6.8511">
        <ele>2546</ele>
        <time>2020-02-21T11:32:47.010Z</time>
      </trkpt>
      <trkpt lat="44.68019" lon="6.85107">
        <ele>2548.44</ele>
        <time>2020-02-21T11:35:50.010Z</time>
      </trkpt>
      <trkpt lat="44.68011" lon="6.85112">
        <ele>2546</ele>
        <time>2020-02-21T11:36:33.010Z</time>
      </trkpt>
      <trkpt lat="44.6801" lon="6.85125">
        <ele>2551.3612778531</ele>
        <time>2020-02-21T11:38:46.010Z</time>
      </trkpt>
      <trkpt lat="44.68017" lon="6.85117">
        <ele>2555.28</ele>
        <time>2020-02-21T11:41:20.010Z</time>
      </trkpt>
      <trkpt lat="44.68027" lon="6.85116">
        <ele>2556</ele>
        <time>2020-02-21T11:44:12.010Z</time>
      </trkpt>
      <trkpt lat="44.6803" lon="6.85103">
        <ele>2552.2732690216</ele>
        <time>2020-02-21T11:44:15.010Z</time>
      </trkpt>
      <trkpt lat="44.68039" lon="6.85097">
        <ele>2545.4664643951</ele>
        <time>2020-02-21T11:44:19.010Z</time>
      </trkpt>
      <trkpt lat="44.68049" lon="6.85102">
        <ele>2540.3613609253</ele>
        <time>2020-02-21T11:44:22.010Z</time>
      </trkpt>
      <trkpt lat="44.68061" lon="6.85106">
        <ele>2536.14</ele>
        <time>2020-02-21T11:44:25.010Z</time>
      </trkpt>
      <trkpt lat="44.6807" lon="6.85108">
        <ele>2528.34</ele>
        <time>2020-02-21T11:44:31.010Z</time>
      </trkpt>
      <trkpt lat="44.68079" lon="6.85116">
        <ele>2525.16</ele>
        <time>2020-02-21T11:44:34.010Z</time>
      </trkpt>
      <trkpt lat="44.6809" lon="6.85113">
        <ele>2523.06</ele>
        <time>2020-02-21T11:44:37.010Z</time>
      </trkpt>
      <trkpt lat="44.681" lon="6.85106">
        <ele>2520.26</ele>
        <time>2020-02-21T11:44:41.010Z</time>
      </trkpt>
      <trkpt lat="44.68109" lon="6.85098">
        <ele>2517.02</ele>
        <time>2020-02-21T11:44:45.010Z</time>
      </trkpt>
      <trkpt lat="44.68118" lon="6.85095">
        <ele>2513.42</ele>
        <time>2020-02-21T11:44:49.010Z</time>
      </trkpt>
      <trkpt lat="44.68126" lon="6.85104">
        <ele>2506.28</ele>
        <time>2020-02-21T11:44:59.010Z</time>
      </trkpt>
      <trkpt lat="44.68138" lon="6.85101">
        <ele>2503.8</ele>
        <time>2020-02-21T11:45:03.010Z</time>
      </trkpt>
      <trkpt lat="44.68143" lon="6.85113">
        <ele>2495.8</ele>
        <time>2020-02-21T11:45:11.010Z</time>
      </trkpt>
      <trkpt lat="44.68148" lon="6.85124">
        <ele>2490.8247812042</ele>
        <time>2020-02-21T11:45:31.010Z</time>
      </trkpt>
      <trkpt lat="44.68155" lon="6.85133">
        <ele>2487.2926539673</ele>
        <time>2020-02-21T11:45:35.010Z</time>
      </trkpt>
      <trkpt lat="44.68163" lon="6.85127">
        <ele>2481.5015493687</ele>
        <time>2020-02-21T11:45:39.010Z</time>
      </trkpt>
      <trkpt lat="44.68173" lon="6.85126">
        <ele>2473.8</ele>
        <time>2020-02-21T11:45:45.010Z</time>
      </trkpt>
      <trkpt lat="44.68183" lon="6.85132">
        <ele>2468.8</ele>
        <time>2020-02-21T11:45:50.010Z</time>
      </trkpt>
      <trkpt lat="44.68193" lon="6.85132">
        <ele>2465.82</ele>
        <time>2020-02-21T11:45:53.010Z</time>
      </trkpt>
      <trkpt lat="44.68204" lon="6.85136">
        <ele>2462.22</ele>
        <time>2020-02-21T11:45:57.010Z</time>
      </trkpt>
      <trkpt lat="44.6821" lon="6.85145">
        <ele>2458.62</ele>
        <time>2020-02-21T11:46:01.010Z</time>
      </trkpt>
      <trkpt lat="44.68219" lon="6.85148">
        <ele>2451.56</ele>
        <time>2020-02-21T11:46:06.010Z</time>
      </trkpt>
      <trkpt lat="44.68229" lon="6.85154">
        <ele>2444.76</ele>
        <time>2020-02-21T11:46:10.010Z</time>
      </trkpt>
      <trkpt lat="44.68238" lon="6.8516">
        <ele>2439.72</ele>
        <time>2020-02-21T11:46:13.010Z</time>
      </trkpt>
      <trkpt lat="44.68246" lon="6.85167">
        <ele>2435.52</ele>
        <time>2020-02-21T11:46:16.010Z</time>
      </trkpt>
      <trkpt lat="44.68258" lon="6.85172">
        <ele>2431.32</ele>
        <time>2020-02-21T11:46:19.010Z</time>
      </trkpt>
      <trkpt lat="44.68262" lon="6.85187">
        <ele>2428.52</ele>
        <time>2020-02-21T11:46:21.010Z</time>
      </trkpt>
      <trkpt lat="44.68267" lon="6.85199">
        <ele>2425.98</ele>
        <time>2020-02-21T11:46:23.010Z</time>
      </trkpt>
      <trkpt lat="44.68273" lon="6.85209">
        <ele>2422.0840827759</ele>
        <time>2020-02-21T11:46:56.010Z</time>
      </trkpt>
      <trkpt lat="44.68279" lon="6.85218">
        <ele>2416.4</ele>
        <time>2020-02-21T11:47:06.010Z</time>
      </trkpt>
      <trkpt lat="44.68285" lon="6.85209">
        <ele>2413.4</ele>
        <time>2020-02-21T11:47:12.010Z</time>
      </trkpt>
      <trkpt lat="44.6829" lon="6.85197">
        <ele>2412.56</ele>
        <time>2020-02-21T11:47:15.010Z</time>
      </trkpt>
      <trkpt lat="44.68295" lon="6.85183">
        <ele>2411.96</ele>
        <time>2020-02-21T11:47:18.010Z</time>
      </trkpt>
      <trkpt lat="44.68305" lon="6.85178">
        <ele>2405.56</ele>
        <time>2020-02-21T11:47:26.010Z</time>
      </trkpt>
      <trkpt lat="44.68318" lon="6.85182">
        <ele>2398.76</ele>
        <time>2020-02-21T11:47:30.010Z</time>
      </trkpt>
      <trkpt lat="44.68329" lon="6.85189">
        <ele>2393.9</ele>
        <time>2020-02-21T11:47:33.010Z</time>
      </trkpt>
      <trkpt lat="44.68339" lon="6.85192">
        <ele>2392.4</ele>
        <time>2020-02-21T11:47:36.010Z</time>
      </trkpt>
      <trkpt lat="44.68354" lon="6.85183">
        <ele>2389.8849984</ele>
        <time>2020-02-21T11:47:41.040Z</time>
      </trkpt>
      <trkpt lat="44.68361" lon="6.85192">
        <ele>2387.08</ele>
        <time>2020-02-21T11:47:46.010Z</time>
      </trkpt>
      <trkpt lat="44.68365" lon="6.85204">
        <ele>2381.56</ele>
        <time>2020-02-21T11:47:54.010Z</time>
      </trkpt>
      <trkpt lat="44.68376" lon="6.85205">
        <ele>2376.76</ele>
        <time>2020-02-21T11:47:58.010Z</time>
      </trkpt>
      <trkpt lat="44.68389" lon="6.85209">
        <ele>2373.16</ele>
        <time>2020-02-21T11:48:01.010Z</time>
      </trkpt>
      <trkpt lat="44.68401" lon="6.85209">
        <ele>2370.88</ele>
        <time>2020-02-21T11:48:04.010Z</time>
      </trkpt>
      <trkpt lat="44.68409" lon="6.85217">
        <ele>2370.58</ele>
        <time>2020-02-21T11:48:07.010Z</time>
      </trkpt>
      <trkpt lat="44.68417" lon="6.85226">
        <ele>2370.18</ele>
        <time>2020-02-21T11:48:11.010Z</time>
      </trkpt>
      <trkpt lat="44.68409" lon="6.85235">
        <ele>2368.4064111168</ele>
        <time>2020-02-21T11:48:46.010Z</time>
      </trkpt>
      <trkpt lat="44.68408" lon="6.85249">
        <ele>2366.72</ele>
        <time>2020-02-21T11:48:53.010Z</time>
      </trkpt>
      <trkpt lat="44.68418" lon="6.85256">
        <ele>2358.32</ele>
        <time>2020-02-21T11:48:59.010Z</time>
      </trkpt>
      <trkpt lat="44.68424" lon="6.85268">
        <ele>2354.12</ele>
        <time>2020-02-21T11:49:02.010Z</time>
      </trkpt>
      <trkpt lat="44.68429" lon="6.85278">
        <ele>2351.9</ele>
        <time>2020-02-21T11:49:05.010Z</time>
      </trkpt>
      <trkpt lat="44.68432" lon="6.85292">
        <ele>2345.12</ele>
        <time>2020-02-21T11:49:20.010Z</time>
      </trkpt>
      <trkpt lat="44.68435" lon="6.85305">
        <ele>2342.44</ele>
        <time>2020-02-21T11:49:24.010Z</time>
      </trkpt>
      <trkpt lat="44.68441" lon="6.85314">
        <ele>2335.94</ele>
        <time>2020-02-21T11:49:29.010Z</time>
      </trkpt>
      <trkpt lat="44.68454" lon="6.85316">
        <ele>2330.84</ele>
        <time>2020-02-21T11:49:33.010Z</time>
      </trkpt>
      <trkpt lat="44.68463" lon="6.85318">
        <ele>2328.44</ele>
        <time>2020-02-21T11:49:36.010Z</time>
      </trkpt>
      <trkpt lat="44.68472" lon="6.85317">
        <ele>2325.24</ele>
        <time>2020-02-21T11:49:40.010Z</time>
      </trkpt>
      <trkpt lat="44.68481" lon="6.85307">
        <ele>2321.02</ele>
        <time>2020-02-21T11:49:45.010Z</time>
      </trkpt>
      <trkpt lat="44.6849" lon="6.85313">
        <ele>2317.42</ele>
        <time>2020-02-21T11:49:49.010Z</time>
      </trkpt>
      <trkpt lat="44.68498" lon="6.85303">
        <ele>2312.9</ele>
        <time>2020-02-21T11:49:55.010Z</time>
      </trkpt>
      <trkpt lat="44.68499" lon="6.8532">
        <ele>2310.04</ele>
        <time>2020-02-21T11:50:08.010Z</time>
      </trkpt>
      <trkpt lat="44.68495" lon="6.85339">
        <ele>2310.24</ele>
        <time>2020-02-21T11:50:09.010Z</time>
      </trkpt>
      <trkpt lat="44.68486" lon="6.85344">
        <ele>2310.16</ele>
        <time>2020-02-21T11:50:17.010Z</time>
      </trkpt>
      <trkpt lat="44.68494" lon="6.85339">
        <ele>2300.92</ele>
        <time>2020-02-21T11:50:48.010Z</time>
      </trkpt>
      <trkpt lat="44.68503" lon="6.85343">
        <ele>2293.48</ele>
        <time>2020-02-21T11:51:02.010Z</time>
      </trkpt>
      <trkpt lat="44.68511" lon="6.85349">
        <ele>2287.48</ele>
        <time>2020-02-21T11:51:12.010Z</time>
      </trkpt>
      <trkpt lat="44.68521" lon="6.85352">
        <ele>2272.44</ele>
        <time>2020-02-21T11:51:26.010Z</time>
      </trkpt>
      <trkpt lat="44.68527" lon="6.85364">
        <ele>2264.9661023438</ele>
        <time>2020-02-21T11:51:34.010Z</time>
      </trkpt>
      <trkpt lat="44.68536" lon="6.85375">
        <ele>2256.4406759112</ele>
        <time>2020-02-21T11:51:39.040Z</time>
      </trkpt>
      <trkpt lat="44.68545" lon="6.85385">
        <ele>2251.4067846359</ele>
        <time>2020-02-21T11:51:42.010Z</time>
      </trkpt>
      <trkpt lat="44.6855" lon="6.85396">
        <ele>2249.7893205681</ele>
        <time>2020-02-21T11:51:45.010Z</time>
      </trkpt>
      <trkpt lat="44.68561" lon="6.85399">
        <ele>2249.3038833733</ele>
        <time>2020-02-21T11:51:50.010Z</time>
      </trkpt>
      <trkpt lat="44.68568" lon="6.85407">
        <ele>2250.92</ele>
        <time>2020-02-21T11:52:12.010Z</time>
      </trkpt>
      <trkpt lat="44.68577" lon="6.85405">
        <ele>2242.2587783378</ele>
        <time>2020-02-21T11:52:38.010Z</time>
      </trkpt>
      <trkpt lat="44.68589" lon="6.85403">
        <ele>2237.043129723</ele>
        <time>2020-02-21T11:52:42.010Z</time>
      </trkpt>
      <trkpt lat="44.68601" lon="6.85411">
        <ele>2232.5825263953</ele>
        <time>2020-02-21T11:52:45.010Z</time>
      </trkpt>
      <trkpt lat="44.6861" lon="6.85415">
        <ele>2229.4757322093</ele>
        <time>2020-02-21T11:52:47.010Z</time>
      </trkpt>
      <trkpt lat="44.68619" lon="6.8542">
        <ele>2226.3689380232</ele>
        <time>2020-02-21T11:52:49.010Z</time>
      </trkpt>
      <trkpt lat="44.68629" lon="6.85423">
        <ele>2223.2621438371</ele>
        <time>2020-02-21T11:52:51.010Z</time>
      </trkpt>
      <trkpt lat="44.68639" lon="6.85424">
        <ele>2219.6288683737</ele>
        <time>2020-02-21T11:52:54.010Z</time>
      </trkpt>
      <trkpt lat="44.68648" lon="6.85427">
        <ele>2215.08</ele>
        <time>2020-02-21T11:53:12.010Z</time>
      </trkpt>
      <trkpt lat="44.68651" lon="6.8544">
        <ele>2210.38</ele>
        <time>2020-02-21T11:53:17.010Z</time>
      </trkpt>
      <trkpt lat="44.68654" lon="6.85458">
        <ele>2205.98</ele>
        <time>2020-02-21T11:53:21.010Z</time>
      </trkpt>
      <trkpt lat="44.68657" lon="6.85473">
        <ele>2202.92</ele>
        <time>2020-02-21T11:53:24.010Z</time>
      </trkpt>
      <trkpt lat="44.68663" lon="6.85486">
        <ele>2199.32</ele>
        <time>2020-02-21T11:53:28.010Z</time>
      </trkpt>
      <trkpt lat="44.68669" lon="6.85497">
        <ele>2196.59299712</ele>
        <time>2020-02-21T11:53:31.040Z</time>
      </trkpt>
      <trkpt lat="44.68675" lon="6.85508">
        <ele>2194.9150016</ele>
        <time>2020-02-21T11:53:32.980Z</time>
      </trkpt>
      <trkpt lat="44.68681" lon="6.85521">
        <ele>2193.9</ele>
        <time>2020-02-21T11:53:35.010Z</time>
      </trkpt>
      <trkpt lat="44.68693" lon="6.85527">
        <ele>2190</ele>
        <time>2020-02-21T11:53:44.010Z</time>
      </trkpt>
      <trkpt lat="44.68701" lon="6.85538">
        <ele>2186.70799872</ele>
        <time>2020-02-21T11:54:31.040Z</time>
      </trkpt>
      <trkpt lat="44.68713" lon="6.8554">
        <ele>2182.26</ele>
        <time>2020-02-21T11:54:35.010Z</time>
      </trkpt>
      <trkpt lat="44.68729" lon="6.85549">
        <ele>2173.70899456</ele>
        <time>2020-02-21T11:54:40.040Z</time>
      </trkpt>
      <trkpt lat="44.6873" lon="6.85564">
        <ele>2170.36</ele>
        <time>2020-02-21T11:54:42.010Z</time>
      </trkpt>
      <trkpt lat="44.68737" lon="6.85553">
        <ele>2162.72399616</ele>
        <time>2020-02-21T11:54:48.040Z</time>
      </trkpt>
      <trkpt lat="44.68745" lon="6.85543">
        <ele>2157.96</ele>
        <time>2020-02-21T11:54:52.010Z</time>
      </trkpt>
      <trkpt lat="44.68757" lon="6.85541">
        <ele>2153.5459765486</ele>
        <time>2020-02-21T11:54:55.040Z</time>
      </trkpt>
      <trkpt lat="44.68772" lon="6.85543">
        <ele>2150.4946736866</ele>
        <time>2020-02-21T11:54:57.010Z</time>
      </trkpt>
      <trkpt lat="44.68781" lon="6.85542">
        <ele>2148.9457864692</ele>
        <time>2020-02-21T11:54:58.010Z</time>
      </trkpt>
      <trkpt lat="44.68793" lon="6.85544">
        <ele>2145.8480120342</ele>
        <time>2020-02-21T11:55:00.010Z</time>
      </trkpt>
      <trkpt lat="44.68804" lon="6.85545">
        <ele>2142.7502375993</ele>
        <time>2020-02-21T11:55:02.010Z</time>
      </trkpt>
      <trkpt lat="44.68821" lon="6.8555">
        <ele>2139.0661814052</ele>
        <time>2020-02-21T11:55:05.010Z</time>
      </trkpt>
      <trkpt lat="44.68831" lon="6.85552">
        <ele>2134.9296781205</ele>
        <time>2020-02-21T11:55:09.010Z</time>
      </trkpt>
      <trkpt lat="44.68839" lon="6.85558">
        <ele>2130.8211832961</ele>
        <time>2020-02-21T11:55:13.040Z</time>
      </trkpt>
      <trkpt lat="44.68849" lon="6.85562">
        <ele>2129.2896031506</ele>
        <time>2020-02-21T11:55:15.010Z</time>
      </trkpt>
      <trkpt lat="44.68858" lon="6.85569">
        <ele>2127.7346969239</ele>
        <time>2020-02-21T11:55:17.010Z</time>
      </trkpt>
      <trkpt lat="44.68899" lon="6.85583">
        <ele>2123</ele>
        <time>2020-02-21T11:55:24.010Z</time>
      </trkpt>
      <trkpt lat="44.68908" lon="6.85582">
        <ele>2123</ele>
        <time>2020-02-21T11:55:25.010Z</time>
      </trkpt>
      <trkpt lat="44.68918" lon="6.85575">
        <ele>2123</ele>
        <time>2020-02-21T11:55:28.010Z</time>
      </trkpt>
      <trkpt lat="44.68927" lon="6.85571">
        <ele>2123</ele>
        <time>2020-02-21T11:55:32.010Z</time>
      </trkpt>
      <trkpt lat="44.68936" lon="6.85565">
        <ele>2123</ele>
        <time>2020-02-21T11:55:43.010Z</time>
      </trkpt>
      <trkpt lat="44.68944" lon="6.85559">
        <ele>2122</ele>
        <time>2020-02-21T11:56:04.010Z</time>
      </trkpt>
      <trkpt lat="44.6895" lon="6.85509">
        <ele>2118.2455107414</ele>
        <time>2020-02-21T11:56:42.010Z</time>
      </trkpt>
      <trkpt lat="44.68928" lon="6.85551">
        <ele>2114.2304642761</ele>
        <time>2020-02-21T11:56:47.010Z</time>
      </trkpt>
      <trkpt lat="44.68941" lon="6.85526">
        <ele>2109.6943863371</ele>
        <time>2020-02-21T11:56:52.040Z</time>
      </trkpt>
      <trkpt lat="44.6893" lon="6.85502">
        <ele>2108.83899776</ele>
        <time>2020-02-21T11:56:53.040Z</time>
      </trkpt>
      <trkpt lat="44.68921" lon="6.855">
        <ele>2101.84</ele>
        <time>2020-02-21T11:57:03.010Z</time>
      </trkpt>
      <trkpt lat="44.68949" lon="6.85531">
        <ele>2091.14</ele>
        <time>2020-02-21T11:57:15.010Z</time>
      </trkpt>
      <trkpt lat="44.68965" lon="6.85517">
        <ele>2089.84</ele>
        <time>2020-02-21T11:57:16.010Z</time>
      </trkpt>
      <trkpt lat="44.68978" lon="6.85514">
        <ele>2079.44</ele>
        <time>2020-02-21T11:57:24.010Z</time>
      </trkpt>
      <trkpt lat="44.68991" lon="6.85516">
        <ele>2073.68099584</ele>
        <time>2020-02-21T11:57:28.440Z</time>
      </trkpt>
      <trkpt lat="44.69002" lon="6.85523">
        <ele>2070.34</ele>
        <time>2020-02-21T11:57:31.010Z</time>
      </trkpt>
      <trkpt lat="44.69012" lon="6.85526">
        <ele>2065.84</ele>
        <time>2020-02-21T11:57:40.010Z</time>
      </trkpt>
      <trkpt lat="44.6902" lon="6.85521">
        <ele>2061.12</ele>
        <time>2020-02-21T11:58:00.010Z</time>
      </trkpt>
      <trkpt lat="44.69029" lon="6.85508">
        <ele>2059</ele>
        <time>2020-02-21T11:58:19.010Z</time>
      </trkpt>
      <trkpt lat="44.69031" lon="6.85494">
        <ele>2059</ele>
        <time>2020-02-21T11:58:27.010Z</time>
      </trkpt>
      <trkpt lat="44.69023" lon="6.85505">
        <ele>2059</ele>
        <time>2020-02-21T11:58:43.010Z</time>
      </trkpt>
      <trkpt lat="44.69019" lon="6.8549">
        <ele>2059</ele>
        <time>2020-02-21T11:58:55.010Z</time>
      </trkpt>
      <trkpt lat="44.69021" lon="6.85477">
        <ele>2059</ele>
        <time>2020-02-21T11:58:59.010Z</time>
      </trkpt>
      <trkpt lat="44.69017" lon="6.8546">
        <ele>2059</ele>
        <time>2020-02-21T11:59:02.040Z</time>
      </trkpt>
      <trkpt lat="44.6901" lon="6.8545">
        <ele>2059.22</ele>
        <time>2020-02-21T11:59:05.010Z</time>
      </trkpt>
      <trkpt lat="44.69" lon="6.85452">
        <ele>2059.82300032</ele>
        <time>2020-02-21T11:59:11.040Z</time>
      </trkpt>
      <trkpt lat="44.69002" lon="6.85436">
        <ele>2060</ele>
        <time>2020-02-21T11:59:17.010Z</time>
      </trkpt>
      <trkpt lat="44.6899" lon="6.85448">
        <ele>2060</ele>
        <time>2020-02-21T11:59:22.010Z</time>
      </trkpt>
      <trkpt lat="44.68982" lon="6.85438">
        <ele>2059.7815636275</ele>
        <time>2020-02-21T11:59:25.010Z</time>
      </trkpt>
      <trkpt lat="44.68981" lon="6.85425">
        <ele>2059</ele>
        <time>2020-02-21T11:59:39.010Z</time>
      </trkpt>
      <trkpt lat="44.68979" lon="6.85412">
        <ele>2059.42</ele>
        <time>2020-02-21T11:59:47.010Z</time>
      </trkpt>
      <trkpt lat="44.68972" lon="6.85425">
        <ele>2059.82</ele>
        <time>2020-02-21T11:59:51.010Z</time>
      </trkpt>
      <trkpt lat="44.68978" lon="6.85411">
        <ele>2058.46</ele>
        <time>2020-02-21T11:59:55.010Z</time>
      </trkpt>
      <trkpt lat="44.68985" lon="6.85403">
        <ele>2056.36</ele>
        <time>2020-02-21T11:59:58.010Z</time>
      </trkpt>
      <trkpt lat="44.68995" lon="6.85396">
        <ele>2054.26</ele>
        <time>2020-02-21T12:00:01.010Z</time>
      </trkpt>
      <trkpt lat="44.69004" lon="6.85388">
        <ele>2052.4</ele>
        <time>2020-02-21T12:00:04.010Z</time>
      </trkpt>
      <trkpt lat="44.69013" lon="6.85383">
        <ele>2050.9</ele>
        <time>2020-02-21T12:00:07.010Z</time>
      </trkpt>
      <trkpt lat="44.69021" lon="6.85376">
        <ele>2049.4</ele>
        <time>2020-02-21T12:00:10.010Z</time>
      </trkpt>
      <trkpt lat="44.69029" lon="6.85371">
        <ele>2047.28</ele>
        <time>2020-02-21T12:00:14.010Z</time>
      </trkpt>
      <trkpt lat="44.6904" lon="6.85364">
        <ele>2043.68</ele>
        <time>2020-02-21T12:00:20.010Z</time>
      </trkpt>
      <trkpt lat="44.69049" lon="6.85359">
        <ele>2041.76</ele>
        <time>2020-02-21T12:00:23.010Z</time>
      </trkpt>
      <trkpt lat="44.6906" lon="6.85355">
        <ele>2038.16</ele>
        <time>2020-02-21T12:00:26.010Z</time>
      </trkpt>
      <trkpt lat="44.69069" lon="6.85346">
        <ele>2033.36</ele>
        <time>2020-02-21T12:00:30.010Z</time>
      </trkpt>
      <trkpt lat="44.69078" lon="6.85335">
        <ele>2029.8636806657</ele>
        <time>2020-02-21T12:00:33.010Z</time>
      </trkpt>
      <trkpt lat="44.69085" lon="6.85327">
        <ele>2028.5004873222</ele>
        <time>2020-02-21T12:00:35.010Z</time>
      </trkpt>
      <trkpt lat="44.69093" lon="6.8532">
        <ele>2027.1372939786</ele>
        <time>2020-02-21T12:00:37.010Z</time>
      </trkpt>
      <trkpt lat="44.69103" lon="6.8531">
        <ele>2025.0925039634</ele>
        <time>2020-02-21T12:00:40.010Z</time>
      </trkpt>
      <trkpt lat="44.69114" lon="6.85303">
        <ele>2022.3309373339</ele>
        <time>2020-02-21T12:00:44.010Z</time>
      </trkpt>
      <trkpt lat="44.69123" lon="6.85295">
        <ele>2020.1726632428</ele>
        <time>2020-02-21T12:00:47.010Z</time>
      </trkpt>
      <trkpt lat="44.69131" lon="6.85289">
        <ele>2017.2949644547</ele>
        <time>2020-02-21T12:00:51.010Z</time>
      </trkpt>
      <trkpt lat="44.69142" lon="6.8528">
        <ele>2013.58</ele>
        <time>2020-02-21T12:00:55.010Z</time>
      </trkpt>
      <trkpt lat="44.69151" lon="6.85275">
        <ele>2011.38</ele>
        <time>2020-02-21T12:00:57.010Z</time>
      </trkpt>
      <trkpt lat="44.6916" lon="6.85269">
        <ele>2009.18</ele>
        <time>2020-02-21T12:00:59.010Z</time>
      </trkpt>
      <trkpt lat="44.69169" lon="6.85262">
        <ele>2006.98</ele>
        <time>2020-02-21T12:01:01.010Z</time>
      </trkpt>
      <trkpt lat="44.69178" lon="6.85257">
        <ele>2004.82</ele>
        <time>2020-02-21T12:01:03.010Z</time>
      </trkpt>
      <trkpt lat="44.69188" lon="6.85249">
        <ele>2002.12</ele>
        <time>2020-02-21T12:01:06.010Z</time>
      </trkpt>
      <trkpt lat="44.69198" lon="6.85242">
        <ele>1999.42</ele>
        <time>2020-02-21T12:01:09.010Z</time>
      </trkpt>
      <trkpt lat="44.69207" lon="6.85234">
        <ele>1997.62</ele>
        <time>2020-02-21T12:01:11.010Z</time>
      </trkpt>
      <trkpt lat="44.69216" lon="6.85227">
        <ele>1995.7872341742</ele>
        <time>2020-02-21T12:01:13.010Z</time>
      </trkpt>
      <trkpt lat="44.69228" lon="6.85229">
        <ele>1993.6595759167</ele>
        <time>2020-02-21T12:01:15.010Z</time>
      </trkpt>
      <trkpt lat="44.69236" lon="6.85223">
        <ele>1991.5319176592</ele>
        <time>2020-02-21T12:01:17.010Z</time>
      </trkpt>
      <trkpt lat="44.69249" lon="6.85205">
        <ele>1988.2978771077</ele>
        <time>2020-02-21T12:01:20.050Z</time>
      </trkpt>
      <trkpt lat="44.69242" lon="6.85172">
        <ele>1986.2127720153</ele>
        <time>2020-02-21T12:01:22.010Z</time>
      </trkpt>
      <trkpt lat="44.69241" lon="6.85159">
        <ele>1985.1489428865</ele>
        <time>2020-02-21T12:01:23.010Z</time>
      </trkpt>
      <trkpt lat="44.69251" lon="6.85153">
        <ele>1982.2029013353</ele>
        <time>2020-02-21T12:01:27.010Z</time>
      </trkpt>
      <trkpt lat="44.6926" lon="6.85151">
        <ele>1980.0289868515</ele>
        <time>2020-02-21T12:01:30.010Z</time>
      </trkpt>
      <trkpt lat="44.69269" lon="6.85144">
        <ele>1978.579710529</ele>
        <time>2020-02-21T12:01:32.010Z</time>
      </trkpt>
      <trkpt lat="44.6928" lon="6.85135">
        <ele>1977.04</ele>
        <time>2020-02-21T12:01:34.010Z</time>
      </trkpt>
      <trkpt lat="44.69296" lon="6.85124">
        <ele>1974.61599744</ele>
        <time>2020-02-21T12:01:37.040Z</time>
      </trkpt>
      <trkpt lat="44.69303" lon="6.85117">
        <ele>1973.04</ele>
        <time>2020-02-21T12:01:39.010Z</time>
      </trkpt>
      <trkpt lat="44.6931" lon="6.85107">
        <ele>1970.64</ele>
        <time>2020-02-21T12:01:42.010Z</time>
      </trkpt>
      <trkpt lat="44.69318" lon="6.85099">
        <ele>1969.18</ele>
        <time>2020-02-21T12:01:51.010Z</time>
      </trkpt>
      <trkpt lat="44.69328" lon="6.85094">
        <ele>1964.84</ele>
        <time>2020-02-21T12:01:58.010Z</time>
      </trkpt>
      <trkpt lat="44.69366" lon="6.85184">
        <ele>1961</ele>
        <time>2020-02-21T12:02:08.010Z</time>
      </trkpt>
      <trkpt lat="44.69375" lon="6.85183">
        <ele>1961.32</ele>
        <time>2020-02-21T12:02:16.010Z</time>
      </trkpt>
      <trkpt lat="44.69371" lon="6.8517">
        <ele>1961.9808245505</ele>
        <time>2020-02-21T12:02:33.010Z</time>
      </trkpt>
      <trkpt lat="44.69377" lon="6.85159">
        <ele>1960.1149459109</ele>
        <time>2020-02-21T12:02:44.010Z</time>
      </trkpt>
      <trkpt lat="44.69391" lon="6.85164">
        <ele>1957.8160945676</ele>
        <time>2020-02-21T12:02:46.010Z</time>
      </trkpt>
      <trkpt lat="44.694" lon="6.85169">
        <ele>1954.3678175525</ele>
        <time>2020-02-21T12:02:49.010Z</time>
      </trkpt>
      <trkpt lat="44.69411" lon="6.85169">
        <ele>1950.9195405374</ele>
        <time>2020-02-21T12:02:52.010Z</time>
      </trkpt>
      <trkpt lat="44.69421" lon="6.85173">
        <ele>1949.04</ele>
        <time>2020-02-21T12:02:54.010Z</time>
      </trkpt>
      <trkpt lat="44.69431" lon="6.85176">
        <ele>1947.44</ele>
        <time>2020-02-21T12:02:56.010Z</time>
      </trkpt>
      <trkpt lat="44.69443" lon="6.85183">
        <ele>1945.04</ele>
        <time>2020-02-21T12:02:59.010Z</time>
      </trkpt>
      <trkpt lat="44.69458" lon="6.85188">
        <ele>1942.61599744</ele>
        <time>2020-02-21T12:03:02.040Z</time>
      </trkpt>
      <trkpt lat="44.69468" lon="6.85193">
        <ele>1940.92</ele>
        <time>2020-02-21T12:03:04.010Z</time>
      </trkpt>
      <trkpt lat="44.69479" lon="6.85199">
        <ele>1938.22</ele>
        <time>2020-02-21T12:03:07.010Z</time>
      </trkpt>
      <trkpt lat="44.69488" lon="6.85206">
        <ele>1935.52</ele>
        <time>2020-02-21T12:03:10.010Z</time>
      </trkpt>
      <trkpt lat="44.69501" lon="6.8521">
        <ele>1932.8007968127</ele>
        <time>2020-02-21T12:03:13.010Z</time>
      </trkpt>
      <trkpt lat="44.6951" lon="6.85217">
        <ele>1930.8087649402</ele>
        <time>2020-02-21T12:03:15.010Z</time>
      </trkpt>
      <trkpt lat="44.69521" lon="6.85224">
        <ele>1928.8167330677</ele>
        <time>2020-02-21T12:03:17.010Z</time>
      </trkpt>
      <trkpt lat="44.69544" lon="6.85234">
        <ele>1925.7988015936</ele>
        <time>2020-02-21T12:03:20.040Z</time>
      </trkpt>
      <trkpt lat="44.69556" lon="6.85244">
        <ele>1923.8366533865</ele>
        <time>2020-02-21T12:03:22.010Z</time>
      </trkpt>
      <trkpt lat="44.69566" lon="6.85254">
        <ele>1921.8353413655</ele>
        <time>2020-02-21T12:03:24.010Z</time>
      </trkpt>
      <trkpt lat="44.69593" lon="6.85264">
        <ele>1917.7891534136</ele>
        <time>2020-02-21T12:03:28.040Z</time>
      </trkpt>
      <trkpt lat="44.69608" lon="6.85275">
        <ele>1915.8112449799</ele>
        <time>2020-02-21T12:03:30.010Z</time>
      </trkpt>
      <trkpt lat="44.6962" lon="6.85282">
        <ele>1913.8032128514</ele>
        <time>2020-02-21T12:03:32.010Z</time>
      </trkpt>
      <trkpt lat="44.69631" lon="6.85293">
        <ele>1912.1625127298</ele>
        <time>2020-02-21T12:03:34.010Z</time>
      </trkpt>
      <trkpt lat="44.69646" lon="6.85304">
        <ele>1910.0687945543</ele>
        <time>2020-02-21T12:03:37.010Z</time>
      </trkpt>
      <trkpt lat="44.69661" lon="6.8531">
        <ele>1907.9541369638</ele>
        <time>2020-02-21T12:03:40.040Z</time>
      </trkpt>
      <trkpt lat="44.69668" lon="6.85322">
        <ele>1906.5792642619</ele>
        <time>2020-02-21T12:03:42.010Z</time>
      </trkpt>
      <trkpt lat="44.69676" lon="6.85333">
        <ele>1904.7091304984</ele>
        <time>2020-02-21T12:03:44.010Z</time>
      </trkpt>
      <trkpt lat="44.69701" lon="6.85344">
        <ele>1900.2627865237</ele>
        <time>2020-02-21T12:03:48.040Z</time>
      </trkpt>
      <trkpt lat="44.69711" lon="6.85358">
        <ele>1898.0892687949</ele>
        <time>2020-02-21T12:03:50.010Z</time>
      </trkpt>
      <trkpt lat="44.6972" lon="6.85372">
        <ele>1895.8826482271</ele>
        <time>2020-02-21T12:03:52.010Z</time>
      </trkpt>
      <trkpt lat="44.69724" lon="6.85386">
        <ele>1894.16</ele>
        <time>2020-02-21T12:03:54.010Z</time>
      </trkpt>
      <trkpt lat="44.69728" lon="6.85399">
        <ele>1892.76</ele>
        <time>2020-02-21T12:03:56.010Z</time>
      </trkpt>
      <trkpt lat="44.69734" lon="6.85413">
        <ele>1891.36</ele>
        <time>2020-02-21T12:03:58.010Z</time>
      </trkpt>
      <trkpt lat="44.69739" lon="6.85427">
        <ele>1889.96</ele>
        <time>2020-02-21T12:04:00.010Z</time>
      </trkpt>
      <trkpt lat="44.69745" lon="6.85442">
        <ele>1888.56</ele>
        <time>2020-02-21T12:04:02.010Z</time>
      </trkpt>
      <trkpt lat="44.69751" lon="6.85457">
        <ele>1886.8</ele>
        <time>2020-02-21T12:04:04.010Z</time>
      </trkpt>
      <trkpt lat="44.69757" lon="6.85473">
        <ele>1884.8</ele>
        <time>2020-02-21T12:04:06.010Z</time>
      </trkpt>
      <trkpt lat="44.69764" lon="6.85488">
        <ele>1882.8</ele>
        <time>2020-02-21T12:04:08.010Z</time>
      </trkpt>
      <trkpt lat="44.69771" lon="6.85503">
        <ele>1880.8</ele>
        <time>2020-02-21T12:04:10.010Z</time>
      </trkpt>
      <trkpt lat="44.69779" lon="6.85517">
        <ele>1878.8</ele>
        <time>2020-02-21T12:04:12.010Z</time>
      </trkpt>
      <trkpt lat="44.69784" lon="6.85532">
        <ele>1876.682635572</ele>
        <time>2020-02-21T12:04:14.010Z</time>
      </trkpt>
      <trkpt lat="44.69791" lon="6.8555">
        <ele>1874.4870281919</ele>
        <time>2020-02-21T12:04:16.010Z</time>
      </trkpt>
      <trkpt lat="44.69798" lon="6.85567">
        <ele>1872.2914208119</ele>
        <time>2020-02-21T12:04:18.010Z</time>
      </trkpt>
      <trkpt lat="44.69807" lon="6.85586">
        <ele>1870.0958134318</ele>
        <time>2020-02-21T12:04:20.010Z</time>
      </trkpt>
      <trkpt lat="44.6981" lon="6.85607">
        <ele>1867.9002060518</ele>
        <time>2020-02-21T12:04:22.010Z</time>
      </trkpt>
      <trkpt lat="44.69811" lon="6.85626">
        <ele>1865.9719316854</ele>
        <time>2020-02-21T12:04:24.010Z</time>
      </trkpt>
      <trkpt lat="44.69812" lon="6.85648">
        <ele>1864.2294335658</ele>
        <time>2020-02-21T12:04:26.010Z</time>
      </trkpt>
      <trkpt lat="44.69812" lon="6.85671">
        <ele>1862.4869354461</ele>
        <time>2020-02-21T12:04:28.010Z</time>
      </trkpt>
      <trkpt lat="44.69811" lon="6.85693">
        <ele>1860.7444373264</ele>
        <time>2020-02-21T12:04:30.010Z</time>
      </trkpt>
      <trkpt lat="44.6981" lon="6.85715">
        <ele>1859.0019392068</ele>
        <time>2020-02-21T12:04:32.010Z</time>
      </trkpt>
      <trkpt lat="44.69809" lon="6.85737">
        <ele>1857.1191740084</ele>
        <time>2020-02-21T12:04:34.010Z</time>
      </trkpt>
      <trkpt lat="44.69806" lon="6.85759">
        <ele>1855.0466344611</ele>
        <time>2020-02-21T12:04:36.010Z</time>
      </trkpt>
      <trkpt lat="44.69802" lon="6.85783">
        <ele>1852.9740949137</ele>
        <time>2020-02-21T12:04:38.010Z</time>
      </trkpt>
      <trkpt lat="44.69797" lon="6.85805">
        <ele>1850.9015553663</ele>
        <time>2020-02-21T12:04:40.010Z</time>
      </trkpt>
      <trkpt lat="44.69792" lon="6.85828">
        <ele>1848.8290158189</ele>
        <time>2020-02-21T12:04:42.010Z</time>
      </trkpt>
      <trkpt lat="44.69788" lon="6.8584">
        <ele>1847.94</ele>
        <time>2020-02-21T12:04:43.010Z</time>
      </trkpt>
      <trkpt lat="44.69784" lon="6.85861">
        <ele>1847.34</ele>
        <time>2020-02-21T12:04:45.010Z</time>
      </trkpt>
      <trkpt lat="44.69784" lon="6.85877">
        <ele>1846.74</ele>
        <time>2020-02-21T12:04:47.010Z</time>
      </trkpt>
      <trkpt lat="44.6979" lon="6.85891">
        <ele>1845.84</ele>
        <time>2020-02-21T12:04:50.010Z</time>
      </trkpt>
      <trkpt lat="44.69798" lon="6.85895">
        <ele>1845</ele>
        <time>2020-02-21T12:04:53.010Z</time>
      </trkpt>
      <trkpt lat="44.69809" lon="6.85904">
        <ele>1845</ele>
        <time>2020-02-21T12:04:57.010Z</time>
      </trkpt>
      <trkpt lat="44.69818" lon="6.85905">
        <ele>1845</ele>
        <time>2020-02-21T12:05:01.010Z</time>
      </trkpt>
      <trkpt lat="44.69827" lon="6.85907">
        <ele>1845.12</ele>
        <time>2020-02-21T12:05:04.010Z</time>
      </trkpt>
      <trkpt lat="44.69836" lon="6.85907">
        <ele>1845.72</ele>
        <time>2020-02-21T12:05:10.010Z</time>
      </trkpt>
      <trkpt lat="44.69846" lon="6.85906">
        <ele>1846</ele>
        <time>2020-02-21T12:05:15.010Z</time>
      </trkpt>
      <trkpt lat="44.69857" lon="6.85908">
        <ele>1846</ele>
        <time>2020-02-21T12:05:21.010Z</time>
      </trkpt>
      <trkpt lat="44.69866" lon="6.85909">
        <ele>1846.3186368376</ele>
        <time>2020-02-21T12:05:26.010Z</time>
      </trkpt>
      <trkpt lat="44.69855" lon="6.85898">
        <ele>1848</ele>
        <time>2020-02-21T12:05:52.010Z</time>
      </trkpt>
      <trkpt lat="44.69847" lon="6.8589">
        <ele>1846.96</ele>
        <time>2020-02-21T12:05:58.010Z</time>
      </trkpt>
      <trkpt lat="44.69858" lon="6.85886">
        <ele>1848.2176527078</ele>
        <time>2020-02-21T12:06:25.010Z</time>
      </trkpt>
      <trkpt lat="44.69867" lon="6.85889">
        <ele>1849</ele>
        <time>2020-02-21T12:06:33.010Z</time>
      </trkpt>
      <trkpt lat="44.69876" lon="6.85893">
        <ele>1849</ele>
        <time>2020-02-21T12:06:41.010Z</time>
      </trkpt>
      <trkpt lat="44.69885" lon="6.85895">
        <ele>1849.84</ele>
        <time>2020-02-21T12:06:47.010Z</time>
      </trkpt>
      <trkpt lat="44.69895" lon="6.85899">
        <ele>1851</ele>
        <time>2020-02-21T12:06:56.010Z</time>
      </trkpt>
      <trkpt lat="44.69903" lon="6.85905">
        <ele>1851.22</ele>
        <time>2020-02-21T12:07:05.010Z</time>
      </trkpt>
      <trkpt lat="44.69911" lon="6.85913">
        <ele>1852.02</ele>
        <time>2020-02-21T12:07:13.010Z</time>
      </trkpt>
      <trkpt lat="44.6992" lon="6.85919">
        <ele>1853.32</ele>
        <time>2020-02-21T12:07:26.010Z</time>
      </trkpt>
      <trkpt lat="44.6993" lon="6.85934">
        <ele>1854.5029010427</ele>
        <time>2020-02-21T12:07:38.010Z</time>
      </trkpt>
      <trkpt lat="44.69939" lon="6.85939">
        <ele>1855.5031052609</ele>
        <time>2020-02-21T12:07:48.010Z</time>
      </trkpt>
      <trkpt lat="44.69949" lon="6.85937">
        <ele>1856.6387221469</ele>
        <time>2020-02-21T12:08:06.010Z</time>
      </trkpt>
      <trkpt lat="44.69957" lon="6.85933">
        <ele>1859.2384764656</ele>
        <time>2020-02-21T12:08:19.010Z</time>
      </trkpt>
      <trkpt lat="44.69966" lon="6.85932">
        <ele>1860.7185624153</ele>
        <time>2020-02-21T12:08:30.010Z</time>
      </trkpt>
      <trkpt lat="44.69975" lon="6.85937">
        <ele>1862.02</ele>
        <time>2020-02-21T12:08:43.010Z</time>
      </trkpt>
      <trkpt lat="44.69983" lon="6.85943">
        <ele>1863.06</ele>
        <time>2020-02-21T12:08:53.010Z</time>
      </trkpt>
      <trkpt lat="44.69992" lon="6.85944">
        <ele>1865.16</ele>
        <time>2020-02-21T12:09:00.010Z</time>
      </trkpt>
      <trkpt lat="44.70002" lon="6.85944">
        <ele>1866.5184445006</ele>
        <time>2020-02-21T12:09:08.010Z</time>
      </trkpt>
      <trkpt lat="44.70011" lon="6.85941">
        <ele>1867.6188564474</ele>
        <time>2020-02-21T12:09:19.010Z</time>
      </trkpt>
      <trkpt lat="44.70021" lon="6.85939">
        <ele>1868.52</ele>
        <time>2020-02-21T12:09:28.010Z</time>
      </trkpt>
      <trkpt lat="44.7003" lon="6.85935">
        <ele>1869.52</ele>
        <time>2020-02-21T12:09:38.010Z</time>
      </trkpt>
      <trkpt lat="44.70039" lon="6.85928">
        <ele>1870</ele>
        <time>2020-02-21T12:09:47.010Z</time>
      </trkpt>
      <trkpt lat="44.70044" lon="6.85918">
        <ele>1870.84</ele>
        <time>2020-02-21T12:09:57.010Z</time>
      </trkpt>
      <trkpt lat="44.70052" lon="6.85909">
        <ele>1873.4371248306</ele>
        <time>2020-02-21T12:10:10.010Z</time>
      </trkpt>
      <trkpt lat="44.7006" lon="6.85902">
        <ele>1874.7194386978</ele>
        <time>2020-02-21T12:10:20.010Z</time>
      </trkpt>
      <trkpt lat="44.70069" lon="6.85897">
        <ele>1875</ele>
        <time>2020-02-21T12:10:30.010Z</time>
      </trkpt>
      <trkpt lat="44.70077" lon="6.85892">
        <ele>1876.4388773957</ele>
        <time>2020-02-21T12:10:40.010Z</time>
      </trkpt>
      <trkpt lat="44.70086" lon="6.85895">
        <ele>1877</ele>
        <time>2020-02-21T12:10:48.010Z</time>
      </trkpt>
      <trkpt lat="44.70094" lon="6.859">
        <ele>1877.5020746888</ele>
        <time>2020-02-21T12:10:58.010Z</time>
      </trkpt>
      <trkpt lat="44.70104" lon="6.85897">
        <ele>1878</ele>
        <time>2020-02-21T12:11:08.010Z</time>
      </trkpt>
      <trkpt lat="44.70113" lon="6.85893">
        <ele>1878</ele>
        <time>2020-02-21T12:11:20.010Z</time>
      </trkpt>
      <trkpt lat="44.70105" lon="6.85899">
        <ele>1879.4188373027</ele>
        <time>2020-02-21T12:11:47.010Z</time>
      </trkpt>
      <trkpt lat="44.70113" lon="6.85892">
        <ele>1880.42</ele>
        <time>2020-02-21T12:11:57.010Z</time>
      </trkpt>
      <trkpt lat="44.70122" lon="6.8589">
        <ele>1881.42</ele>
        <time>2020-02-21T12:12:07.010Z</time>
      </trkpt>
      <trkpt lat="44.70131" lon="6.85886">
        <ele>1882.32</ele>
        <time>2020-02-21T12:12:16.010Z</time>
      </trkpt>
      <trkpt lat="44.7014" lon="6.85884">
        <ele>1883.62</ele>
        <time>2020-02-21T12:12:29.010Z</time>
      </trkpt>
      <trkpt lat="44.70139" lon="6.85898">
        <ele>1884.32</ele>
        <time>2020-02-21T12:12:36.010Z</time>
      </trkpt>
      <trkpt lat="44.70139" lon="6.85912">
        <ele>1884.92</ele>
        <time>2020-02-21T12:12:42.010Z</time>
      </trkpt>
      <trkpt lat="44.70134" lon="6.85924">
        <ele>1885.82</ele>
        <time>2020-02-21T12:12:51.010Z</time>
      </trkpt>
      <trkpt lat="44.70133" lon="6.85931">
        <ele>1887.9000244141</ele>
        <time>2020-02-21T12:13:46.010Z</time>
      </trkpt>
    </trkseg>
  </trk>
</gpx>